Observation data for Sterling City on 05/14/2018      Previous  Date  Next       Current Mesonet Observations  Soil Data  Daily Summary Page  Observations in Plain Language
KSC1 140500Z 17010KT 26/16 A2994 RMK A01 T02550163  RH  057%=      5-min Rain = 0
KSC1 140501Z 16009KT 26/16 A2994 RMK A01 T02550164  RH  057%=      5-min Rain = 0
KSC1 140502Z 16010KT 25/16 A2994 RMK A01 T02540164  RH  057%=      5-min Rain = 0
KSC1 140503Z 16010KT 25/16 A2994 RMK A01 T02540164  RH  057%=      5-min Rain = 0
KSC1 140504Z 16011KT 25/16 A2994 RMK A01 T02540164  RH  057%=      5-min Rain = 0
KSC1 140505Z 16011KT 25/16 A2994 RMK A01 T02540164  RH  057%=      5-min Rain = 0
KSC1 140506Z 16008KT 25/16 A2994 RMK A01 T02540164  RH  058%=      5-min Rain = 0
KSC1 140507Z 16007KT 25/16 A2994 RMK A01 T02530164  RH  058%=      5-min Rain = 0
KSC1 140508Z 16010KT 25/16 A2994 RMK A01 T02530164  RH  058%=      5-min Rain = 0
KSC1 140509Z 16011KT 25/16 A2994 RMK A01 T02530164  RH  058%=      5-min Rain = 0
KSC1 140510Z 15008KT 25/16 A2994 RMK A01 T02530164  RH  058%=      5-min Rain = 0
KSC1 140511Z 15010KT 25/17 A2994 RMK A01 T02530165  RH  058%=      5-min Rain = 0
KSC1 140512Z 15008KT 25/17 A2994 RMK A01 T02530165  RH  058%=      5-min Rain = 0
KSC1 140513Z 15010KT 25/17 A2994 RMK A01 T02520165  RH  058%=      5-min Rain = 0
KSC1 140514Z 16010KT 25/17 A2994 RMK A01 T02530165  RH  058%=      5-min Rain = 0
KSC1 140515Z 15008KT 25/17 A2994 RMK A01 T02520165  RH  058%=      5-min Rain = 0
KSC1 140516Z 15010KT 25/17 A2994 RMK A01 T02520165  RH  058%=      5-min Rain = 0
KSC1 140517Z 15011KT 25/17 A2994 RMK A01 T02530165  RH  058%=      5-min Rain = 0
KSC1 140518Z 15008KT 25/17 A2994 RMK A01 T02520165  RH  059%=      5-min Rain = 0
KSC1 140519Z 15011KT 25/17 A2994 RMK A01 T02530166  RH  059%=      5-min Rain = 0
KSC1 140520Z 16008KT 25/17 A2994 RMK A01 T02520166  RH  059%=      5-min Rain = 0
KSC1 140521Z 15008G13KT 25/17 A2995 RMK A01 T02520166  RH  059%=      5-min Rain = 0
KSC1 140522Z 15011KT 25/17 A2994 RMK A01 T02520166  RH  059%=      5-min Rain = 0
KSC1 140523Z 15008KT 25/17 A2995 RMK A01 T02520166  RH  059%=      5-min Rain = 0
KSC1 140524Z 15009KT 25/17 A2995 RMK A01 T02520166  RH  059%=      5-min Rain = 0
KSC1 140525Z 15009KT 25/17 A2995 RMK A01 T02520166  RH  059%=      5-min Rain = 0
KSC1 140526Z 14007KT 25/17 A2995 RMK A01 T02520166  RH  059%=      5-min Rain = 0
KSC1 140527Z 14007KT 25/17 A2995 RMK A01 T02510166  RH  059%=      5-min Rain = 0
KSC1 140528Z 15008KT 25/17 A2995 RMK A01 T02510166  RH  059%=      5-min Rain = 0
KSC1 140529Z 14008KT 25/17 A2994 RMK A01 T02510167  RH  060%=      5-min Rain = 0
KSC1 140530Z 14007KT 25/17 A2994 RMK A01 T02500167  RH  060%=      5-min Rain = 0
KSC1 140531Z 14006G11KT 25/17 A2994 RMK A01 T02510167  RH  060%=      5-min Rain = 0
KSC1 140532Z 14007KT 25/17 A2994 RMK A01 T02500166  RH  060%=      5-min Rain = 0
KSC1 140533Z 14006KT 25/17 A2994 RMK A01 T02500167  RH  060%=      5-min Rain = 0
KSC1 140534Z 14010KT 25/17 A2994 RMK A01 T02500167  RH  060%=      5-min Rain = 0
KSC1 140535Z 14008KT 25/17 A2994 RMK A01 T02500167  RH  060%=      5-min Rain = 0
KSC1 140536Z 14008KT 25/17 A2994 RMK A01 T02490167  RH  060%=      5-min Rain = 0
KSC1 140537Z 14007KT 25/17 A2994 RMK A01 T02500167  RH  060%=      5-min Rain = 0
KSC1 140538Z 14008KT 25/17 A2994 RMK A01 T02490167  RH  060%=      5-min Rain = 0
KSC1 140539Z 13008KT 25/17 A2994 RMK A01 T02490167  RH  060%=      5-min Rain = 0
KSC1 140540Z 13007KT 25/17 A2994 RMK A01 T02490167  RH  060%=      5-min Rain = 0
KSC1 140541Z 13006KT 25/17 A2994 RMK A01 T02480166  RH  060%=      5-min Rain = 0
KSC1 140542Z 13007KT 25/17 A2994 RMK A01 T02480166  RH  061%=      5-min Rain = 0
KSC1 140543Z 13008KT 25/17 A2994 RMK A01 T02470166  RH  061%=      5-min Rain = 0
KSC1 140544Z 14008KT 25/17 A2994 RMK A01 T02470166  RH  061%=      5-min Rain = 0
KSC1 140545Z 13008KT 25/17 A2994 RMK A01 T02470167  RH  061%=      5-min Rain = 0
KSC1 140546Z 14007KT 25/17 A2994 RMK A01 T02470167  RH  061%=      5-min Rain = 0
KSC1 140547Z 14009KT 25/17 A2994 RMK A01 T02470167  RH  061%=      5-min Rain = 0
KSC1 140548Z 14008KT 25/17 A2994 RMK A01 T02470167  RH  061%=      5-min Rain = 0
KSC1 140549Z 14008KT 25/17 A2994 RMK A01 T02470167  RH  061%=      5-min Rain = 0
KSC1 140550Z 14007KT 25/17 A2994 RMK A01 T02470167  RH  061%=      5-min Rain = 0
KSC1 140551Z 14007KT 25/17 A2994 RMK A01 T02470167  RH  061%=      5-min Rain = 0
KSC1 140552Z 15008KT 25/17 A2994 RMK A01 T02460167  RH  061%=      5-min Rain = 0
KSC1 140553Z 15009KT 25/17 A2993 RMK A01 T02470168  RH  061%=      5-min Rain = 0
KSC1 140554Z 15007KT 25/17 A2994 RMK A01 T02460168  RH  061%=      5-min Rain = 0
KSC1 140555Z 15008KT 25/17 A2994 RMK A01 T02460167  RH  061%=      5-min Rain = 0
KSC1 140556Z 15011KT 25/17 A2994 RMK A01 T02460168  RH  062%=      5-min Rain = 0
KSC1 140557Z 15010KT 25/17 A2994 RMK A01 T02460168  RH  062%=      5-min Rain = 0
KSC1 140558Z 15008G13KT 25/17 A2994 RMK A01 T02470168  RH  062%=      5-min Rain = 0
KSC1 140559Z 15009KT 25/17 A2994 RMK A01 T02470168  RH  061%=      5-min Rain = 0
KSC1 140600Z 16009KT 25/17 A2994 RMK A01 T02470168  RH  061%=      5-min Rain = 0
KSC1 140601Z 15009KT 25/17 A2994 RMK A01 T02470169  RH  062%=      5-min Rain = 0
KSC1 140602Z 15009KT 25/17 A2994 RMK A01 T02470169  RH  062%=      5-min Rain = 0
KSC1 140603Z 15009KT 25/17 A2994 RMK A01 T02470169  RH  062%=      5-min Rain = 0
KSC1 140604Z 15010KT 25/17 A2994 RMK A01 T02470169  RH  062%=      5-min Rain = 0
KSC1 140605Z 15009KT 25/17 A2994 RMK A01 T02470169  RH  062%=      5-min Rain = 0
KSC1 140606Z 15010KT 25/17 A2994 RMK A01 T02470169  RH  062%=      5-min Rain = 0
KSC1 140607Z 15009KT 25/17 A2994 RMK A01 T02470169  RH  062%=      5-min Rain = 0
KSC1 140608Z 15011KT 25/17 A2993 RMK A01 T02460169  RH  062%=      5-min Rain = 0
KSC1 140609Z 15009KT 25/17 A2994 RMK A01 T02460169  RH  062%=      5-min Rain = 0
KSC1 140610Z 15009KT 25/17 A2994 RMK A01 T02460169  RH  062%=      5-min Rain = 0
KSC1 140611Z 15009KT 25/17 A2994 RMK A01 T02460169  RH  062%=      5-min Rain = 0
KSC1 140612Z 15009KT 25/17 A2993 RMK A01 T02460169  RH  062%=      5-min Rain = 0
KSC1 140613Z 15010KT 25/17 A2993 RMK A01 T02460169  RH  062%=      5-min Rain = 0
KSC1 140614Z 15009KT 25/17 A2993 RMK A01 T02460169  RH  062%=      5-min Rain = 0
KSC1 140615Z 15009KT 25/17 A2993 RMK A01 T02460169  RH  062%=      5-min Rain = 0
KSC1 140616Z 14009KT 25/17 A2993 RMK A01 T02460169  RH  062%=      5-min Rain = 0
KSC1 140617Z 15008KT 25/17 A2993 RMK A01 T02460169  RH  062%=      5-min Rain = 0
KSC1 140618Z 15009KT 25/17 A2993 RMK A01 T02460169  RH  062%=      5-min Rain = 0
KSC1 140619Z 15007KT 25/17 A2993 RMK A01 T02460169  RH  062%=      5-min Rain = 0
KSC1 140620Z 14008KT 25/17 A2993 RMK A01 T02460169  RH  062%=      5-min Rain = 0
KSC1 140621Z 14007KT 25/17 A2993 RMK A01 T02460169  RH  062%=      5-min Rain = 0
KSC1 140622Z 15010KT 25/17 A2993 RMK A01 T02460170  RH  063%=      5-min Rain = 0
KSC1 140623Z 14010KT 25/17 A2993 RMK A01 T02450169  RH  062%=      5-min Rain = 0
KSC1 140624Z 14008KT 25/17 A2993 RMK A01 T02460169  RH  062%=      5-min Rain = 0
KSC1 140625Z 14007KT 25/17 A2993 RMK A01 T02450169  RH  062%=      5-min Rain = 0
KSC1 140626Z 14006KT 25/17 A2993 RMK A01 T02450169  RH  062%=      5-min Rain = 0
KSC1 140627Z 13009KT 25/17 A2993 RMK A01 T02450169  RH  063%=      5-min Rain = 0
KSC1 140628Z 14008KT 25/17 A2993 RMK A01 T02450170  RH  063%=      5-min Rain = 0
KSC1 140629Z 14006KT 25/17 A2993 RMK A01 T02450170  RH  063%=      5-min Rain = 0
KSC1 140630Z 14008KT 25/17 A2993 RMK A01 T02450170  RH  063%=      5-min Rain = 0
KSC1 140631Z 13006KT 25/17 A2993 RMK A01 T02450170  RH  063%=      5-min Rain = 0
KSC1 140632Z 13008KT 24/17 A2993 RMK A01 T02440169  RH  063%=      5-min Rain = 0
KSC1 140633Z 13007KT 24/17 A2993 RMK A01 T02440170  RH  063%=      5-min Rain = 0
KSC1 140634Z 13007KT 24/17 A2993 RMK A01 T02440169  RH  063%=      5-min Rain = 0
KSC1 140635Z 13006KT 24/17 A2993 RMK A01 T02430170  RH  063%=      5-min Rain = 0
KSC1 140636Z 12006KT 24/17 A2993 RMK A01 T02430169  RH  063%=      5-min Rain = 0
KSC1 140637Z 13006KT 24/17 A2993 RMK A01 T02420169  RH  064%=      5-min Rain = 0
KSC1 140638Z 13005KT 24/17 A2993 RMK A01 T02410169  RH  064%=      5-min Rain = 0
KSC1 140639Z 12006KT 24/17 A2993 RMK A01 T02410169  RH  064%=      5-min Rain = 0
KSC1 140640Z 13006KT 24/17 A2993 RMK A01 T02400169  RH  064%=      5-min Rain = 0
KSC1 140641Z 14005KT 24/17 A2993 RMK A01 T02400169  RH  064%=      5-min Rain = 0
KSC1 140642Z 13005KT 24/17 A2993 RMK A01 T02400169  RH  065%=      5-min Rain = 0
KSC1 140643Z 13006KT 24/17 A2993 RMK A01 T02400169  RH  065%=      5-min Rain = 0
KSC1 140644Z 13006KT 24/17 A2993 RMK A01 T02400170  RH  065%=      5-min Rain = 0
KSC1 140645Z 14006KT 24/17 A2993 RMK A01 T02400170  RH  065%=      5-min Rain = 0
KSC1 140646Z 13006KT 24/17 A2993 RMK A01 T02390169  RH  065%=      5-min Rain = 0
KSC1 140647Z 14007KT 24/17 A2993 RMK A01 T02390169  RH  065%=      5-min Rain = 0
KSC1 140648Z 14007KT 24/17 A2993 RMK A01 T02390170  RH  065%=      5-min Rain = 0
KSC1 140649Z 14007KT 24/17 A2993 RMK A01 T02390170  RH  065%=      5-min Rain = 0
KSC1 140650Z 14007KT 24/17 A2993 RMK A01 T02390169  RH  065%=      5-min Rain = 0
KSC1 140651Z 14007KT 24/17 A2993 RMK A01 T02400170  RH  065%=      5-min Rain = 0
KSC1 140652Z 15008KT 24/17 A2993 RMK A01 T02400170  RH  065%=      5-min Rain = 0
KSC1 140653Z 14005KT 24/17 A2993 RMK A01 T02390169  RH  065%=      5-min Rain = 0
KSC1 140654Z 15008KT 24/17 A2993 RMK A01 T02390169  RH  065%=      5-min Rain = 0
KSC1 140655Z 14009KT 24/17 A2993 RMK A01 T02400170  RH  065%=      5-min Rain = 0
KSC1 140656Z 15006KT 24/17 A2993 RMK A01 T02400170  RH  065%=      5-min Rain = 0
KSC1 140657Z 15008KT 24/17 A2993 RMK A01 T02400170  RH  065%=      5-min Rain = 0
KSC1 140658Z 15008KT 24/17 A2993 RMK A01 T02400170  RH  065%=      5-min Rain = 0
KSC1 140659Z 15006KT 24/17 A2993 RMK A01 T02410170  RH  065%=      5-min Rain = 0
KSC1 140700Z 15007KT 24/17 A2993 RMK A01 T02410170  RH  064%=      5-min Rain = 0
KSC1 140701Z 15008KT 24/17 A2993 RMK A01 T02410170  RH  065%=      5-min Rain = 0
KSC1 140702Z 14006KT 24/17 A2993 RMK A01 T02410170  RH  065%=      5-min Rain = 0
KSC1 140703Z 15007KT 24/17 A2993 RMK A01 T02410170  RH  065%=      5-min Rain = 0
KSC1 140704Z 15008KT 24/17 A2993 RMK A01 T02410170  RH  065%=      5-min Rain = 0
KSC1 140705Z 14007KT 24/17 A2993 RMK A01 T02400171  RH  065%=      5-min Rain = 0
KSC1 140706Z 15007KT 24/17 A2993 RMK A01 T02400170  RH  065%=      5-min Rain = 0
KSC1 140707Z 14005KT 24/17 A2993 RMK A01 T02400170  RH  065%=      5-min Rain = 0
KSC1 140708Z 15008KT 24/17 A2993 RMK A01 T02410170  RH  065%=      5-min Rain = 0
KSC1 140709Z 15008KT 24/17 A2993 RMK A01 T02400171  RH  065%=      5-min Rain = 0
KSC1 140710Z 15006KT 24/17 A2993 RMK A01 T02400170  RH  065%=      5-min Rain = 0
KSC1 140711Z 16006KT 24/17 A2993 RMK A01 T02400170  RH  065%=      5-min Rain = 0
KSC1 140712Z 15006KT 24/17 A2993 RMK A01 T02400170  RH  065%=      5-min Rain = 0
KSC1 140713Z 15007KT 24/17 A2993 RMK A01 T02400170  RH  065%=      5-min Rain = 0
KSC1 140714Z 16007KT 24/17 A2993 RMK A01 T02400170  RH  065%=      5-min Rain = 0
KSC1 140715Z 15008KT 24/17 A2993 RMK A01 T02390170  RH  065%=      5-min Rain = 0
KSC1 140716Z 15007KT 24/17 A2993 RMK A01 T02400170  RH  065%=      5-min Rain = 0
KSC1 140717Z 15005KT 24/17 A2993 RMK A01 T02400170  RH  065%=      5-min Rain = 0
KSC1 140718Z 14007KT 24/17 A2993 RMK A01 T02400170  RH  065%=      5-min Rain = 0
KSC1 140719Z 15008KT 24/17 A2993 RMK A01 T02400170  RH  065%=      5-min Rain = 0
KSC1 140720Z 15007KT 24/17 A2993 RMK A01 T02390170  RH  065%=      5-min Rain = 0
KSC1 140721Z 14005KT 24/17 A2993 RMK A01 T02390170  RH  065%=      5-min Rain = 0
KSC1 140722Z 14005KT 24/17 A2993 RMK A01 T02390170  RH  065%=      5-min Rain = 0
KSC1 140723Z 15007KT 24/17 A2993 RMK A01 T02390170  RH  066%=      5-min Rain = 0
KSC1 140724Z 14008KT 24/17 A2993 RMK A01 T02390171  RH  066%=      5-min Rain = 0
KSC1 140725Z 13007KT 24/17 A2993 RMK A01 T02390171  RH  066%=      5-min Rain = 0
KSC1 140726Z 14007KT 24/17 A2993 RMK A01 T02390171  RH  066%=      5-min Rain = 0
KSC1 140727Z 14009KT 24/17 A2993 RMK A01 T02390171  RH  066%=      5-min Rain = 0
KSC1 140728Z 14007KT 24/17 A2993 RMK A01 T02390171  RH  066%=      5-min Rain = 0
KSC1 140729Z 14007KT 24/17 A2993 RMK A01 T02390171  RH  065%=      5-min Rain = 0
KSC1 140730Z 13006KT 24/17 A2993 RMK A01 T02390171  RH  066%=      5-min Rain = 0
KSC1 140731Z 13005KT 24/17 A2993 RMK A01 T02390171  RH  066%=      5-min Rain = 0
KSC1 140732Z 13007KT 24/17 A2993 RMK A01 T02380171  RH  066%=      5-min Rain = 0
KSC1 140733Z 14008KT 24/17 A2993 RMK A01 T02380171  RH  066%=      5-min Rain = 0
KSC1 140734Z 14006KT 24/17 A2993 RMK A01 T02380171  RH  066%=      5-min Rain = 0
KSC1 140735Z 14006KT 24/17 A2993 RMK A01 T02380171  RH  066%=      5-min Rain = 0
KSC1 140736Z 13008KT 24/17 A2993 RMK A01 T02380171  RH  066%=      5-min Rain = 0
KSC1 140737Z 12004KT 24/17 A2993 RMK A01 T02380171  RH  066%=      5-min Rain = 0
KSC1 140738Z 12005KT 24/17 A2993 RMK A01 T02380171  RH  066%=      5-min Rain = 0
KSC1 140739Z 12005KT 24/17 A2993 RMK A01 T02370170  RH  066%=      5-min Rain = 0
KSC1 140740Z 12005KT 24/17 A2993 RMK A01 T02360170  RH  067%=      5-min Rain = 0
KSC1 140741Z 12004KT 24/17 A2993 RMK A01 T02350170  RH  067%=      5-min Rain = 0
KSC1 140742Z 12004KT 23/17 A2993 RMK A01 T02330169  RH  067%=      5-min Rain = 0
KSC1 140743Z 12005KT 23/17 A2993 RMK A01 T02330169  RH  068%=      5-min Rain = 0
KSC1 140744Z 11005KT 23/17 A2993 RMK A01 T02320169  RH  068%=      5-min Rain = 0
KSC1 140745Z 12005KT 23/17 A2993 RMK A01 T02310169  RH  068%=      5-min Rain = 0
KSC1 140746Z 11005KT 23/17 A2993 RMK A01 T02300169  RH  068%=      5-min Rain = 0
KSC1 140747Z 11005KT 23/17 A2993 RMK A01 T02300169  RH  069%=      5-min Rain = 0
KSC1 140748Z 11004KT 23/17 A2993 RMK A01 T02300169  RH  069%=      5-min Rain = 0
KSC1 140749Z 11004KT 23/17 A2993 RMK A01 T02290169  RH  069%=      5-min Rain = 0
KSC1 140750Z 11005KT 23/17 A2993 RMK A01 T02280169  RH  069%=      5-min Rain = 0
KSC1 140751Z 11005KT 23/17 A2993 RMK A01 T02290170  RH  069%=      5-min Rain = 0
KSC1 140752Z 10005KT 23/17 A2993 RMK A01 T02290170  RH  069%=      5-min Rain = 0
KSC1 140753Z 10005KT 23/17 A2993 RMK A01 T02290170  RH  069%=      5-min Rain = 0
KSC1 140754Z 10006KT 23/17 A2993 RMK A01 T02280170  RH  069%=      5-min Rain = 0
KSC1 140755Z 10005KT 23/17 A2993 RMK A01 T02290170  RH  069%=      5-min Rain = 0
KSC1 140756Z 09004KT 23/17 A2993 RMK A01 T02290170  RH  069%=      5-min Rain = 0
KSC1 140757Z 08004KT 23/17 A2993 RMK A01 T02290170  RH  069%=      5-min Rain = 0
KSC1 140758Z 07004KT 23/17 A2993 RMK A01 T02290170  RH  069%=      5-min Rain = 0
KSC1 140759Z 08004KT 23/17 A2993 RMK A01 T02280169  RH  069%=      5-min Rain = 0
KSC1 140800Z 08004KT 23/17 A2993 RMK A01 T02270169  RH  070%=      5-min Rain = 0
KSC1 140801Z 08004KT 23/17 A2994 RMK A01 T02260168  RH  070%=      5-min Rain = 0
KSC1 140802Z 07004KT 23/17 A2994 RMK A01 T02250168  RH  070%=      5-min Rain = 0
KSC1 140803Z 08004KT 22/17 A2994 RMK A01 T02240168  RH  071%=      5-min Rain = 0
KSC1 140804Z 07005KT 22/17 A2994 RMK A01 T02230168  RH  071%=      5-min Rain = 0
KSC1 140805Z 07003KT 22/17 A2994 RMK A01 T02220168  RH  071%=      5-min Rain = 0
KSC1 140806Z 06003KT 22/17 A2994 RMK A01 T02210167  RH  071%=      5-min Rain = 0
KSC1 140807Z 06004KT 22/17 A2994 RMK A01 T02200166  RH  072%=      5-min Rain = 0
KSC1 140808Z 07004KT 22/17 A2994 RMK A01 T02180166  RH  072%=      5-min Rain = 0
KSC1 140809Z 08004KT 22/17 A2994 RMK A01 T02170165  RH  073%=      5-min Rain = 0
KSC1 140810Z 08003KT 22/17 A2994 RMK A01 T02160166  RH  073%=      5-min Rain = 0
KSC1 140816Z 11005KT 21/17 A2993 RMK A01 T02130166  RH  075%=      5-min Rain = 0
KSC1 140817Z 11004KT 21/17 A2993 RMK A01 T02130166  RH  074%=      5-min Rain = 0
KSC1 140818Z 11006KT 21/17 A2993 RMK A01 T02140167  RH  075%=      5-min Rain = 0
KSC1 140819Z 11006KT 22/17 A2993 RMK A01 T02150168  RH  075%=      5-min Rain = 0
KSC1 140820Z 12006KT 22/17 A2994 RMK A01 T02170169  RH  074%=      5-min Rain = 0
KSC1 140821Z 12005KT 22/17 A2994 RMK A01 T02180170  RH  074%=      5-min Rain = 0
KSC1 140822Z 12005KT 22/17 A2994 RMK A01 T02200170  RH  073%=      5-min Rain = 0
KSC1 140823Z 12005KT 22/17 A2994 RMK A01 T02210170  RH  073%=      5-min Rain = 0
KSC1 140824Z 12006KT 22/17 A2994 RMK A01 T02220171  RH  073%=      5-min Rain = 0
KSC1 140825Z 12006KT 22/17 A2994 RMK A01 T02230171  RH  072%=      5-min Rain = 0
KSC1 140826Z 12005KT 22/17 A2994 RMK A01 T02240171  RH  072%=      5-min Rain = 0
KSC1 140827Z 12005KT 23/17 A2994 RMK A01 T02250171  RH  071%=      5-min Rain = 0
KSC1 140828Z 12006KT 23/17 A2994 RMK A01 T02260172  RH  071%=      5-min Rain = 0
KSC1 140829Z 12005KT 23/17 A2994 RMK A01 T02250171  RH  071%=      5-min Rain = 0
KSC1 140830Z 11005KT 23/17 A2994 RMK A01 T02250171  RH  071%=      5-min Rain = 0
KSC1 140831Z 11006KT 23/17 A2994 RMK A01 T02250171  RH  071%=      5-min Rain = 0
KSC1 140832Z 11006KT 23/17 A2994 RMK A01 T02250171  RH  071%=      5-min Rain = 0
KSC1 140833Z 12005KT 23/17 A2994 RMK A01 T02250171  RH  071%=      5-min Rain = 0
KSC1 140834Z 11006KT 23/17 A2994 RMK A01 T02250171  RH  071%=      5-min Rain = 0
KSC1 140835Z 11007KT 23/17 A2994 RMK A01 T02260171  RH  071%=      5-min Rain = 0
KSC1 140836Z 10005KT 23/17 A2994 RMK A01 T02260171  RH  071%=      5-min Rain = 0
KSC1 140837Z 11006KT 23/17 A2994 RMK A01 T02260171  RH  071%=      5-min Rain = 0
KSC1 140838Z 09004KT 23/17 A2994 RMK A01 T02260171  RH  071%=      5-min Rain = 0
KSC1 140839Z 08004KT 22/17 A2994 RMK A01 T02240169  RH  071%=      5-min Rain = 0
KSC1 140840Z 08004KT 22/17 A2994 RMK A01 T02220168  RH  071%=      5-min Rain = 0
KSC1 140841Z 08004KT 22/17 A2994 RMK A01 T02190167  RH  072%=      5-min Rain = 0
KSC1 140842Z 09005KT 22/17 A2994 RMK A01 T02170167  RH  073%=      5-min Rain = 0
KSC1 140843Z 08004KT 22/17 A2994 RMK A01 T02160167  RH  074%=      5-min Rain = 0
KSC1 140844Z 08004KT 22/17 A2994 RMK A01 T02150167  RH  074%=      5-min Rain = 0
KSC1 140845Z 08005KT 21/17 A2994 RMK A01 T02140167  RH  074%=      5-min Rain = 0
KSC1 140846Z 08005KT 21/17 A2994 RMK A01 T02140167  RH  075%=      5-min Rain = 0
KSC1 140847Z 09005KT 21/17 A2994 RMK A01 T02130168  RH  075%=      5-min Rain = 0
KSC1 140848Z 09005KT 21/17 A2994 RMK A01 T02130168  RH  075%=      5-min Rain = 0
KSC1 140849Z 09005KT 21/17 A2994 RMK A01 T02130167  RH  075%=      5-min Rain = 0
KSC1 140850Z 09005KT 21/17 A2994 RMK A01 T02130168  RH  075%=      5-min Rain = 0
KSC1 140851Z 09005KT 21/17 A2994 RMK A01 T02130167  RH  075%=      5-min Rain = 0
KSC1 140852Z 09005KT 21/17 A2994 RMK A01 T02130168  RH  075%=      5-min Rain = 0
KSC1 140853Z 10005KT 21/17 A2994 RMK A01 T02130168  RH  075%=      5-min Rain = 0
KSC1 140854Z 10005KT 21/17 A2994 RMK A01 T02130168  RH  075%=      5-min Rain = 0
KSC1 140855Z 10005KT 21/17 A2994 RMK A01 T02130168  RH  075%=      5-min Rain = 0
KSC1 140856Z 10005KT 21/17 A2994 RMK A01 T02130168  RH  075%=      5-min Rain = 0
KSC1 140857Z 11004KT 21/17 A2994 RMK A01 T02130168  RH  076%=      5-min Rain = 0
KSC1 140858Z 11005KT 21/17 A2994 RMK A01 T02130168  RH  076%=      5-min Rain = 0
KSC1 140859Z 11005KT 21/17 A2994 RMK A01 T02130168  RH  076%=      5-min Rain = 0
KSC1 140900Z 11005KT 21/17 A2994 RMK A01 T02130169  RH  076%=      5-min Rain = 0
KSC1 140901Z 11006KT 21/17 A2994 RMK A01 T02140169  RH  076%=      5-min Rain = 0
KSC1 140902Z 11007KT 22/17 A2994 RMK A01 T02150170  RH  075%=      5-min Rain = 0
KSC1 140903Z 12007KT 22/17 A2994 RMK A01 T02160171  RH  075%=      5-min Rain = 0
KSC1 140904Z 11006KT 22/17 A2994 RMK A01 T02190172  RH  075%=      5-min Rain = 0
KSC1 140905Z 12007KT 22/17 A2994 RMK A01 T02200172  RH  074%=      5-min Rain = 0
KSC1 140906Z 12006KT 22/17 A2994 RMK A01 T02210172  RH  074%=      5-min Rain = 0
KSC1 140907Z 11007KT 22/17 A2994 RMK A01 T02220172  RH  073%=      5-min Rain = 0
KSC1 140908Z 12007KT 22/17 A2994 RMK A01 T02220172  RH  073%=      5-min Rain = 0
KSC1 140909Z 12006KT 22/17 A2994 RMK A01 T02230172  RH  073%=      5-min Rain = 0
KSC1 140910Z 12006KT 22/17 A2994 RMK A01 T02230172  RH  073%=      5-min Rain = 0
KSC1 140911Z 11008KT 22/17 A2994 RMK A01 T02240172  RH  073%=      5-min Rain = 0
KSC1 140912Z 12007KT 22/17 A2994 RMK A01 T02240173  RH  073%=      5-min Rain = 0
KSC1 140913Z 11007KT 22/17 A2994 RMK A01 T02240172  RH  072%=      5-min Rain = 0
KSC1 140914Z 12007KT 22/17 A2994 RMK A01 T02240172  RH  072%=      5-min Rain = 0
KSC1 140915Z 11006KT 23/17 A2994 RMK A01 T02250173  RH  072%=      5-min Rain = 0
KSC1 140916Z 12009KT 22/17 A2994 RMK A01 T02240172  RH  072%=      5-min Rain = 0
KSC1 140917Z 11007KT 23/17 A2994 RMK A01 T02250173  RH  072%=      5-min Rain = 0
KSC1 140918Z 12008KT 23/17 A2994 RMK A01 T02250173  RH  072%=      5-min Rain = 0
KSC1 140919Z 11008KT 23/17 A2994 RMK A01 T02260173  RH  072%=      5-min Rain = 0
KSC1 140920Z 12007KT 23/17 A2994 RMK A01 T02260173  RH  072%=      5-min Rain = 0
KSC1 140921Z 12009KT 23/17 A2994 RMK A01 T02260173  RH  072%=      5-min Rain = 0
KSC1 140922Z 12009KT 23/17 A2994 RMK A01 T02260174  RH  072%=      5-min Rain = 0
KSC1 140923Z 12008KT 23/17 A2994 RMK A01 T02260173  RH  072%=      5-min Rain = 0
KSC1 140924Z 12006KT 23/17 A2994 RMK A01 T02260173  RH  072%=      5-min Rain = 0
KSC1 140925Z 12007KT 23/17 A2994 RMK A01 T02260173  RH  072%=      5-min Rain = 0
KSC1 140926Z 12008KT 23/17 A2994 RMK A01 T02250173  RH  072%=      5-min Rain = 0
KSC1 140927Z 12007KT 23/17 A2994 RMK A01 T02250173  RH  072%=      5-min Rain = 0
KSC1 140928Z 12007KT 23/17 A2994 RMK A01 T02250173  RH  073%=      5-min Rain = 0
KSC1 140929Z 12006KT 23/17 A2994 RMK A01 T02250173  RH  072%=      5-min Rain = 0
KSC1 140930Z 12007KT 23/17 A2994 RMK A01 T02250173  RH  073%=      5-min Rain = 0
KSC1 140931Z 12007KT 22/17 A2994 RMK A01 T02240173  RH  073%=      5-min Rain = 0
KSC1 140932Z 12008KT 23/17 A2994 RMK A01 T02250174  RH  073%=      5-min Rain = 0
KSC1 140933Z 12006KT 22/17 A2994 RMK A01 T02240173  RH  073%=      5-min Rain = 0
KSC1 140934Z 12008KT 22/17 A2994 RMK A01 T02240173  RH  073%=      5-min Rain = 0
KSC1 140935Z 12007KT 22/17 A2994 RMK A01 T02240173  RH  073%=      5-min Rain = 0
KSC1 140936Z 11005KT 22/17 A2994 RMK A01 T02240174  RH  073%=      5-min Rain = 0
KSC1 140937Z 12007KT 22/17 A2994 RMK A01 T02240174  RH  073%=      5-min Rain = 0
KSC1 140938Z 12006KT 23/17 A2994 RMK A01 T02250174  RH  073%=      5-min Rain = 0
KSC1 140939Z 12006KT 23/17 A2994 RMK A01 T02250174  RH  073%=      5-min Rain = 0
KSC1 140940Z 12008KT 22/18 A2994 RMK A01 T02240175  RH  073%=      5-min Rain = 0
KSC1 140941Z 12008KT 22/18 A2994 RMK A01 T02240175  RH  073%=      5-min Rain = 0
KSC1 140942Z 13007KT 23/18 A2994 RMK A01 T02250175  RH  073%=      5-min Rain = 0
KSC1 140943Z 12007KT 23/18 A2994 RMK A01 T02250175  RH  073%=      5-min Rain = 0
KSC1 140944Z 12007KT 23/18 A2994 RMK A01 T02250175  RH  073%=      5-min Rain = 0
KSC1 140945Z 12007KT 23/18 A2994 RMK A01 T02250175  RH  074%=      5-min Rain = 0
KSC1 140946Z 12007KT 23/18 A2994 RMK A01 T02250175  RH  074%=      5-min Rain = 0
KSC1 140947Z 12007KT 23/18 A2994 RMK A01 T02250176  RH  074%=      5-min Rain = 0
KSC1 140948Z 12007KT 23/18 A2994 RMK A01 T02250175  RH  074%=      5-min Rain = 0
KSC1 140949Z 12007KT 23/18 A2994 RMK A01 T02250175  RH  074%=      5-min Rain = 0
KSC1 140950Z 12008KT 23/18 A2994 RMK A01 T02250176  RH  074%=      5-min Rain = 0
KSC1 140951Z 12007KT 23/18 A2994 RMK A01 T02250176  RH  074%=      5-min Rain = 0
KSC1 140952Z 12008KT 23/18 A2994 RMK A01 T02250176  RH  074%=      5-min Rain = 0
KSC1 140953Z 12006KT 23/18 A2994 RMK A01 T02260176  RH  074%=      5-min Rain = 0
KSC1 140954Z 12006KT 23/18 A2994 RMK A01 T02260176  RH  074%=      5-min Rain = 0
KSC1 140955Z 13006KT 23/18 A2994 RMK A01 T02260176  RH  074%=      5-min Rain = 0
KSC1 140956Z 12008KT 23/18 A2994 RMK A01 T02260176  RH  074%=      5-min Rain = 0
KSC1 140957Z 13007KT 23/18 A2994 RMK A01 T02260177  RH  074%=      5-min Rain = 0
KSC1 140958Z 12008KT 23/18 A2994 RMK A01 T02260177  RH  074%=      5-min Rain = 0
KSC1 140959Z 13006KT 23/18 A2994 RMK A01 T02260177  RH  074%=      5-min Rain = 0
KSC1 141000Z 13007KT 23/18 A2994 RMK A01 T02270178  RH  074%=      5-min Rain = 0
KSC1 141001Z 13006KT 23/18 A2994 RMK A01 T02270178  RH  074%=      5-min Rain = 0
KSC1 141002Z 12007KT 23/18 A2994 RMK A01 T02270178  RH  074%=      5-min Rain = 0
KSC1 141003Z 12008KT 23/18 A2994 RMK A01 T02270178  RH  074%=      5-min Rain = 0
KSC1 141004Z 12007KT 23/18 A2994 RMK A01 T02270178  RH  074%=      5-min Rain = 0
KSC1 141005Z 12006KT 23/18 A2994 RMK A01 T02270178  RH  074%=      5-min Rain = 0
KSC1 141006Z 12006KT 23/18 A2994 RMK A01 T02270178  RH  074%=      5-min Rain = 0
KSC1 141007Z 12007G12KT 23/18 A2994 RMK A01 T02270178  RH  074%=      5-min Rain = 0
KSC1 141008Z 12007KT 23/18 A2994 RMK A01 T02260178  RH  074%=      5-min Rain = 0
KSC1 141009Z 11008KT 23/18 A2994 RMK A01 T02260178  RH  074%=      5-min Rain = 0
KSC1 141010Z 12008KT 23/18 A2994 RMK A01 T02260178  RH  074%=      5-min Rain = 0
KSC1 141011Z 12006KT 23/18 A2994 RMK A01 T02260178  RH  074%=      5-min Rain = 0
KSC1 141012Z 12007KT 23/18 A2994 RMK A01 T02260179  RH  074%=      5-min Rain = 0
KSC1 141013Z 12005KT 23/18 A2994 RMK A01 T02260179  RH  075%=      5-min Rain = 0
KSC1 141014Z 12006KT 23/18 A2994 RMK A01 T02260179  RH  075%=      5-min Rain = 0
KSC1 141015Z 13006KT 23/18 A2994 RMK A01 T02260180  RH  075%=      5-min Rain = 0
KSC1 141016Z 12009KT 23/18 A2995 RMK A01 T02260180  RH  075%=      5-min Rain = 0
KSC1 141017Z 13007KT 23/18 A2995 RMK A01 T02260180  RH  075%=      5-min Rain = 0
KSC1 141018Z 13007KT 23/18 A2995 RMK A01 T02260180  RH  075%=      5-min Rain = 0
KSC1 141019Z 12006KT 23/18 A2995 RMK A01 T02260181  RH  075%=      5-min Rain = 0
KSC1 141020Z 13008KT 23/18 A2995 RMK A01 T02270181  RH  075%=      5-min Rain = 0
KSC1 141021Z 12008KT 23/18 A2995 RMK A01 T02270181  RH  076%=      5-min Rain = 0
KSC1 141022Z 13008KT 23/18 A2995 RMK A01 T02270182  RH  076%=      5-min Rain = 0
KSC1 141023Z 13009KT 23/18 A2995 RMK A01 T02270183  RH  076%=      5-min Rain = 0
KSC1 141024Z 13007KT 23/18 A2995 RMK A01 T02270182  RH  076%=      5-min Rain = 0
KSC1 141025Z 13008KT 23/18 A2995 RMK A01 T02270182  RH  076%=      5-min Rain = 0
KSC1 141026Z 13006G11KT 23/18 A2995 RMK A01 T02280183  RH  076%=      5-min Rain = 0
KSC1 141027Z 13008KT 23/18 A2995 RMK A01 T02270183  RH  076%=      5-min Rain = 0
KSC1 141028Z 13007KT 23/18 A2995 RMK A01 T02270183  RH  076%=      5-min Rain = 0
KSC1 141029Z 13006KT 23/18 A2995 RMK A01 T02270183  RH  076%=      5-min Rain = 0
KSC1 141030Z 13006KT 23/18 A2995 RMK A01 T02270183  RH  076%=      5-min Rain = 0
KSC1 141031Z 13007KT 23/18 A2995 RMK A01 T02270183  RH  077%=      5-min Rain = 0
KSC1 141032Z 13007KT 23/18 A2995 RMK A01 T02270184  RH  077%=      5-min Rain = 0
KSC1 141033Z 13007KT 23/18 A2995 RMK A01 T02270184  RH  077%=      5-min Rain = 0
KSC1 141034Z 14008KT 23/19 A2995 RMK A01 T02270185  RH  077%=      5-min Rain = 0
KSC1 141035Z 12008KT 23/19 A2995 RMK A01 T02270185  RH  077%=      5-min Rain = 0
KSC1 141036Z 13008KT 23/19 A2995 RMK A01 T02270185  RH  077%=      5-min Rain = 0
KSC1 141037Z 13006KT 23/19 A2995 RMK A01 T02270185  RH  077%=      5-min Rain = 0
KSC1 141038Z 13006KT 23/19 A2995 RMK A01 T02270185  RH  077%=      5-min Rain = 0
KSC1 141039Z 13007KT 23/19 A2995 RMK A01 T02270185  RH  077%=      5-min Rain = 0
KSC1 141040Z 12009KT 23/19 A2995 RMK A01 T02270186  RH  077%=      5-min Rain = 0
KSC1 141041Z 13007KT 23/19 A2995 RMK A01 T02270185  RH  077%=      5-min Rain = 0
KSC1 141042Z 13006KT 23/19 A2995 RMK A01 T02270186  RH  077%=      5-min Rain = 0
KSC1 141043Z 13006KT 23/19 A2995 RMK A01 T02270186  RH  077%=      5-min Rain = 0
KSC1 141044Z 13006KT 23/19 A2995 RMK A01 T02270186  RH  077%=      5-min Rain = 0
KSC1 141045Z 12008KT 23/19 A2995 RMK A01 T02270186  RH  078%=      5-min Rain = 0
KSC1 141046Z 13008KT 23/19 A2995 RMK A01 T02270186  RH  078%=      5-min Rain = 0
KSC1 141047Z 12007KT 23/19 A2995 RMK A01 T02270186  RH  078%=      5-min Rain = 0
KSC1 141048Z 13007KT 23/19 A2995 RMK A01 T02270186  RH  077%=      5-min Rain = 0
KSC1 141049Z 13006KT 23/19 A2995 RMK A01 T02270186  RH  078%=      5-min Rain = 0
KSC1 141050Z 12006KT 23/19 A2995 RMK A01 T02270186  RH  078%=      5-min Rain = 0
KSC1 141051Z 12006KT 23/19 A2995 RMK A01 T02270186  RH  078%=      5-min Rain = 0
KSC1 141052Z 13007KT 23/19 A2995 RMK A01 T02260186  RH  078%=      5-min Rain = 0
KSC1 141053Z 13007KT 23/19 A2995 RMK A01 T02260186  RH  078%=      5-min Rain = 0
KSC1 141054Z 13006KT 23/19 A2995 RMK A01 T02260186  RH  078%=      5-min Rain = 0
KSC1 141055Z 13006KT 23/19 A2995 RMK A01 T02260186  RH  078%=      5-min Rain = 0
KSC1 141056Z 13007KT 23/19 A2995 RMK A01 T02260186  RH  078%=      5-min Rain = 0
KSC1 141057Z 13008KT 23/19 A2995 RMK A01 T02260187  RH  078%=      5-min Rain = 0
KSC1 141058Z 13009KT 23/19 A2995 RMK A01 T02270187  RH  078%=      5-min Rain = 0
KSC1 141059Z 13009KT 23/19 A2995 RMK A01 T02270187  RH  078%=      5-min Rain = 0
KSC1 141100Z 13007KT 23/19 A2995 RMK A01 T02270187  RH  078%=      5-min Rain = 0
KSC1 141101Z 14006KT 23/19 A2995 RMK A01 T02270187  RH  078%=      5-min Rain = 0
KSC1 141102Z 13006KT 23/19 A2995 RMK A01 T02270187  RH  078%=      5-min Rain = 0
KSC1 141103Z 13007KT 23/19 A2995 RMK A01 T02270188  RH  078%=      5-min Rain = 0
KSC1 141104Z 13005KT 23/19 A2995 RMK A01 T02270187  RH  078%=      5-min Rain = 0
KSC1 141105Z 14007KT 23/19 A2995 RMK A01 T02270187  RH  078%=      5-min Rain = 0
KSC1 141106Z 14006KT 23/19 A2995 RMK A01 T02270188  RH  079%=      5-min Rain = 0
KSC1 141107Z 13007KT 23/19 A2995 RMK A01 T02270188  RH  079%=      5-min Rain = 0
KSC1 141108Z 13007KT 23/19 A2995 RMK A01 T02260188  RH  079%=      5-min Rain = 0
KSC1 141109Z 14005KT 23/19 A2995 RMK A01 T02260187  RH  079%=      5-min Rain = 0
KSC1 141110Z 13008KT 23/19 A2995 RMK A01 T02260188  RH  079%=      5-min Rain = 0
KSC1 141111Z 13007KT 23/19 A2995 RMK A01 T02260188  RH  079%=      5-min Rain = 0
KSC1 141112Z 14009KT 23/19 A2995 RMK A01 T02260188  RH  079%=      5-min Rain = 0
KSC1 141113Z 13007KT 23/19 A2995 RMK A01 T02260188  RH  079%=      5-min Rain = 0
KSC1 141114Z 13008KT 23/19 A2995 RMK A01 T02260188  RH  079%=      5-min Rain = 0
KSC1 141115Z 14007KT 23/19 A2995 RMK A01 T02260188  RH  079%=      5-min Rain = 0
KSC1 141116Z 14007KT 23/19 A2995 RMK A01 T02260188  RH  079%=      5-min Rain = 0
KSC1 141117Z 13008KT 23/19 A2995 RMK A01 T02260188  RH  079%=      5-min Rain = 0
KSC1 141118Z 13009KT 23/19 A2995 RMK A01 T02260188  RH  079%=      5-min Rain = 0
KSC1 141119Z 14009KT 23/19 A2995 RMK A01 T02270189  RH  079%=      5-min Rain = 0
KSC1 141120Z 14007KT 23/19 A2995 RMK A01 T02270189  RH  079%=      5-min Rain = 0
KSC1 141121Z 13007KT 23/19 A2995 RMK A01 T02270189  RH  079%=      5-min Rain = 0
KSC1 141122Z 13006KT 23/19 A2995 RMK A01 T02270189  RH  079%=      5-min Rain = 0
KSC1 141123Z 13007KT 23/19 A2995 RMK A01 T02270189  RH  079%=      5-min Rain = 0
KSC1 141124Z 14006KT 23/19 A2995 RMK A01 T02260189  RH  079%=      5-min Rain = 0
KSC1 141125Z 13006KT 23/19 A2995 RMK A01 T02260189  RH  079%=      5-min Rain = 0
KSC1 141126Z 13006KT 23/19 A2995 RMK A01 T02260189  RH  079%=      5-min Rain = 0
KSC1 141127Z 13009KT 23/19 A2995 RMK A01 T02260189  RH  080%=      5-min Rain = 0
KSC1 141128Z 13007KT 23/19 A2995 RMK A01 T02260189  RH  080%=      5-min Rain = 0
KSC1 141129Z 13005KT 23/19 A2995 RMK A01 T02260189  RH  080%=      5-min Rain = 0
KSC1 141130Z 13006KT 23/19 A2995 RMK A01 T02260189  RH  080%=      5-min Rain = 0
KSC1 141131Z 13007KT 23/19 A2995 RMK A01 T02260189  RH  080%=      5-min Rain = 0
KSC1 141132Z 13006KT 23/19 A2995 RMK A01 T02250189  RH  080%=      5-min Rain = 0
KSC1 141133Z 13006KT 23/19 A2995 RMK A01 T02250189  RH  080%=      5-min Rain = 0
KSC1 141134Z 13007KT 23/19 A2995 RMK A01 T02250189  RH  080%=      5-min Rain = 0
KSC1 141135Z 14009KT 23/19 A2995 RMK A01 T02250189  RH  080%=      5-min Rain = 0
KSC1 141136Z 14009KT 23/19 A2995 RMK A01 T02260190  RH  080%=      5-min Rain = 0
KSC1 141137Z 14009KT 23/19 A2995 RMK A01 T02260190  RH  080%=      5-min Rain = 0
KSC1 141138Z 14010KT 23/19 A2995 RMK A01 T02270190  RH  080%=      5-min Rain = 0
KSC1 141139Z 14009KT 23/19 A2996 RMK A01 T02280190  RH  079%=      5-min Rain = 0
KSC1 141140Z 15008KT 23/19 A2995 RMK A01 T02280190  RH  079%=      5-min Rain = 0
KSC1 141141Z 15009KT 23/19 A2995 RMK A01 T02280190  RH  079%=      5-min Rain = 0
KSC1 141142Z 14009KT 23/19 A2996 RMK A01 T02280190  RH  079%=      5-min Rain = 0
KSC1 141143Z 15009KT 23/19 A2996 RMK A01 T02290191  RH  079%=      5-min Rain = 0
KSC1 141144Z 14008KT 23/19 A2996 RMK A01 T02290190  RH  079%=      5-min Rain = 0
KSC1 141145Z 15009KT 23/19 A2996 RMK A01 T02290190  RH  079%=      5-min Rain = 0
KSC1 141146Z 14009KT 23/19 A2996 RMK A01 T02300191  RH  079%=      5-min Rain = 0
KSC1 141147Z 15010KT 23/19 A2996 RMK A01 T02300190  RH  078%=      5-min Rain = 0
KSC1 141148Z 14009KT 23/19 A2996 RMK A01 T02300190  RH  078%=      5-min Rain = 0
KSC1 141149Z 15011KT 23/19 A2996 RMK A01 T02300190  RH  078%=      5-min Rain = 0
KSC1 141150Z 15012KT 23/19 A2996 RMK A01 T02300190  RH  078%=      5-min Rain = 0
KSC1 141151Z 15012KT 23/19 A2996 RMK A01 T02310190  RH  078%=      5-min Rain = 0
KSC1 141152Z 14012KT 23/19 A2996 RMK A01 T02310191  RH  078%=      5-min Rain = 0
KSC1 141153Z 15010KT 23/19 A2996 RMK A01 T02320191  RH  078%=      5-min Rain = 0
KSC1 141154Z 15008KT 23/19 A2996 RMK A01 T02320190  RH  077%=      5-min Rain = 0
KSC1 141155Z 15006KT 23/19 A2996 RMK A01 T02320190  RH  077%=      5-min Rain = 0
KSC1 141156Z 15008KT 23/19 A2996 RMK A01 T02320190  RH  077%=      5-min Rain = 0
KSC1 141157Z 15010KT 23/19 A2996 RMK A01 T02320190  RH  077%=      5-min Rain = 0
KSC1 141158Z 16010KT 23/19 A2996 RMK A01 T02320190  RH  077%=      5-min Rain = 0
KSC1 141159Z 15009KT 23/19 A2996 RMK A01 T02320190  RH  077%=      5-min Rain = 0
KSC1 141200Z 15013KT 23/19 A2996 RMK A01 T02320190  RH  077%=      5-min Rain = 0
KSC1 141201Z 15012KT 23/19 A2996 RMK A01 T02330190  RH  077%=      5-min Rain = 0
KSC1 141202Z 15013KT 23/19 A2996 RMK A01 T02330190  RH  077%=      5-min Rain = 0
KSC1 141203Z 15009G14KT 23/19 A2996 RMK A01 T02330190  RH  077%=      5-min Rain = 0
KSC1 141204Z 15011KT 23/19 A2996 RMK A01 T02330190  RH  077%=      5-min Rain = 0
KSC1 141205Z 16012G17KT 23/19 A2996 RMK A01 T02330190  RH  076%=      5-min Rain = 0
KSC1 141206Z 16011G16KT 23/19 A2996 RMK A01 T02330189  RH  076%=      5-min Rain = 0
KSC1 141207Z 15009KT 23/19 A2996 RMK A01 T02330189  RH  076%=      5-min Rain = 0
KSC1 141208Z 16010KT 23/19 A2996 RMK A01 T02340190  RH  076%=      5-min Rain = 0
KSC1 141209Z 14011KT 23/19 A2996 RMK A01 T02340190  RH  076%=      5-min Rain = 0
KSC1 141210Z 16010KT 23/19 A2996 RMK A01 T02340189  RH  076%=      5-min Rain = 0
KSC1 141211Z 16011KT 23/19 A2997 RMK A01 T02340189  RH  076%=      5-min Rain = 0
KSC1 141212Z 16009G16KT 23/19 A2996 RMK A01 T02340189  RH  076%=      5-min Rain = 0
KSC1 141213Z 15013KT 23/19 A2996 RMK A01 T02340190  RH  076%=      5-min Rain = 0
KSC1 141214Z 16010KT 23/19 A2997 RMK A01 T02340189  RH  076%=      5-min Rain = 0
KSC1 141215Z 16013G18KT 23/19 A2997 RMK A01 T02340189  RH  076%=      5-min Rain = 0
KSC1 141216Z 16012KT 23/19 A2997 RMK A01 T02340189  RH  076%=      5-min Rain = 0
KSC1 141217Z 16011KT 23/19 A2997 RMK A01 T02340189  RH  076%=      5-min Rain = 0
KSC1 141218Z 16010G15KT 24/19 A2997 RMK A01 T02350190  RH  076%=      5-min Rain = 0
KSC1 141219Z 15008KT 24/19 A2997 RMK A01 T02350190  RH  076%=      5-min Rain = 0
KSC1 141220Z 15010KT 24/19 A2997 RMK A01 T02350189  RH  076%=      5-min Rain = 0
KSC1 141221Z 15009KT 23/19 A2997 RMK A01 T02340189  RH  076%=      5-min Rain = 0
KSC1 141222Z 16008KT 24/19 A2997 RMK A01 T02350189  RH  076%=      5-min Rain = 0
KSC1 141223Z 16009KT 24/19 A2997 RMK A01 T02350190  RH  076%=      5-min Rain = 0
KSC1 141224Z 16011G16KT 24/19 A2997 RMK A01 T02350189  RH  076%=      5-min Rain = 0
KSC1 141225Z 16011KT 24/19 A2997 RMK A01 T02350189  RH  075%=      5-min Rain = 0
KSC1 141226Z 16012KT 24/19 A2997 RMK A01 T02360190  RH  075%=      5-min Rain = 0
KSC1 141227Z 15010KT 24/19 A2997 RMK A01 T02350189  RH  075%=      5-min Rain = 0
KSC1 141228Z 15012KT 24/19 A2997 RMK A01 T02350189  RH  075%=      5-min Rain = 0
KSC1 141229Z 15011KT 24/19 A2997 RMK A01 T02350189  RH  075%=      5-min Rain = 0
KSC1 141230Z 15014KT 24/19 A2997 RMK A01 T02350189  RH  075%=      5-min Rain = 0
KSC1 141231Z 16015KT 24/19 A2997 RMK A01 T02350189  RH  075%=      5-min Rain = 0
KSC1 141232Z 15012KT 24/19 A2997 RMK A01 T02350189  RH  075%=      5-min Rain = 0
KSC1 141233Z 15010KT 24/19 A2997 RMK A01 T02350189  RH  075%=      5-min Rain = 0
KSC1 141234Z 15014KT 24/19 A2997 RMK A01 T02350189  RH  075%=      5-min Rain = 0
KSC1 141235Z 15012G17KT 24/19 A2997 RMK A01 T02350189  RH  075%=      5-min Rain = 0
KSC1 141236Z 16014KT 24/19 A2997 RMK A01 T02350189  RH  075%=      5-min Rain = 0
KSC1 141237Z 15013G18KT 24/19 A2997 RMK A01 T02350189  RH  075%=      5-min Rain = 0
KSC1 141238Z 15011KT 24/19 A2997 RMK A01 T02350189  RH  075%=      5-min Rain = 0
KSC1 141239Z 15009KT 24/19 A2997 RMK A01 T02350189  RH  075%=      5-min Rain = 0
KSC1 141240Z 16011KT 24/19 A2997 RMK A01 T02350189  RH  075%=      5-min Rain = 0
KSC1 141241Z 15012G17KT 24/19 A2997 RMK A01 T02350189  RH  075%=      5-min Rain = 0
KSC1 141242Z 15012KT 24/19 A2997 RMK A01 T02350189  RH  075%=      5-min Rain = 0
KSC1 141243Z 15009G14KT 24/19 A2997 RMK A01 T02350189  RH  075%=      5-min Rain = 0
KSC1 141244Z 15007KT 24/19 A2997 RMK A01 T02350189  RH  075%=      5-min Rain = 0
KSC1 141245Z 15012KT 24/19 A2997 RMK A01 T02360189  RH  075%=      5-min Rain = 0
KSC1 141246Z 15011KT 24/19 A2997 RMK A01 T02360189  RH  075%=      5-min Rain = 0
KSC1 141247Z 15008KT 24/19 A2997 RMK A01 T02360189  RH  075%=      5-min Rain = 0
KSC1 141248Z 15008KT 24/19 A2997 RMK A01 T02360189  RH  075%=      5-min Rain = 0
KSC1 141249Z 15009KT 24/19 A2997 RMK A01 T02360189  RH  075%=      5-min Rain = 0
KSC1 141250Z 15010G15KT 24/19 A2997 RMK A01 T02360189  RH  075%=      5-min Rain = 0
KSC1 141251Z 14009KT 24/19 A2997 RMK A01 T02360189  RH  075%=      5-min Rain = 0
KSC1 141252Z 14010G15KT 24/19 A2997 RMK A01 T02360189  RH  075%=      5-min Rain = 0
KSC1 141253Z 16012KT 24/19 A2997 RMK A01 T02360189  RH  075%=      5-min Rain = 0
KSC1 141254Z 15011KT 24/19 A2997 RMK A01 T02360189  RH  075%=      5-min Rain = 0
KSC1 141255Z 15008KT 24/19 A2997 RMK A01 T02370189  RH  075%=      5-min Rain = 0
KSC1 141256Z 16010KT 24/19 A2997 RMK A01 T02360189  RH  075%=      5-min Rain = 0
KSC1 141257Z 15010KT 24/19 A2997 RMK A01 T02360189  RH  075%=      5-min Rain = 0
KSC1 141258Z 15008KT 24/19 A2997 RMK A01 T02360189  RH  075%=      5-min Rain = 0
KSC1 141259Z 16011G16KT 24/19 A2997 RMK A01 T02370189  RH  075%=      5-min Rain = 0
KSC1 141300Z 15012KT 24/19 A2997 RMK A01 T02360189  RH  075%=      5-min Rain = 0
KSC1 141301Z 15012KT 24/19 A2997 RMK A01 T02360189  RH  075%=      5-min Rain = 0
KSC1 141302Z 15010KT 24/19 A2997 RMK A01 T02360189  RH  075%=      5-min Rain = 0
KSC1 141303Z 15011KT 24/19 A2997 RMK A01 T02360189  RH  075%=      5-min Rain = 0
KSC1 141304Z 15012G17KT 24/19 A2997 RMK A01 T02360189  RH  075%=      5-min Rain = 0
KSC1 141305Z 15014KT 24/19 A2997 RMK A01 T02360189  RH  075%=      5-min Rain = 0
KSC1 141306Z 15011KT 24/19 A2997 RMK A01 T02360189  RH  075%=      5-min Rain = 0
KSC1 141307Z 15011KT 24/19 A2997 RMK A01 T02360189  RH  075%=      5-min Rain = 0
KSC1 141308Z 15009KT 24/19 A2997 RMK A01 T02360189  RH  075%=      5-min Rain = 0
KSC1 141309Z 14012KT 24/19 A2997 RMK A01 T02360189  RH  075%=      5-min Rain = 0
KSC1 141310Z 15011KT 24/19 A2997 RMK A01 T02360189  RH  075%=      5-min Rain = 0
KSC1 141311Z 15009KT 24/19 A2997 RMK A01 T02360189  RH  075%=      5-min Rain = 0
KSC1 141312Z 16009KT 24/19 A2997 RMK A01 T02360189  RH  075%=      5-min Rain = 0
KSC1 141313Z 15012KT 24/19 A2997 RMK A01 T02360189  RH  075%=      5-min Rain = 0
KSC1 141314Z 15010G15KT 24/19 A2997 RMK A01 T02360189  RH  075%=      5-min Rain = 0
KSC1 141315Z 16009KT 24/19 A2997 RMK A01 T02360189  RH  075%=      5-min Rain = 0
KSC1 141316Z 16009KT 24/19 A2998 RMK A01 T02370189  RH  075%=      5-min Rain = 0
KSC1 141317Z 16007KT 24/19 A2998 RMK A01 T02370189  RH  074%=      5-min Rain = 0
KSC1 141318Z 15005KT 24/19 A2998 RMK A01 T02380190  RH  074%=      5-min Rain = 0
KSC1 141319Z 16007KT 24/19 A2998 RMK A01 T02390190  RH  074%=      5-min Rain = 0
KSC1 141320Z 15011KT 24/19 A2998 RMK A01 T02400190  RH  074%=      5-min Rain = 0
KSC1 141321Z 15008KT 24/19 A2998 RMK A01 T02400190  RH  073%=      5-min Rain = 0
KSC1 141322Z 16009G14KT 24/19 A2998 RMK A01 T02400190  RH  073%=      5-min Rain = 0
KSC1 141323Z 16008KT 24/19 A2998 RMK A01 T02410190  RH  073%=      5-min Rain = 0
KSC1 141324Z 15009KT 24/19 A2998 RMK A01 T02420190  RH  073%=      5-min Rain = 0
KSC1 141325Z 16012G17KT 24/19 A2998 RMK A01 T02420190  RH  073%=      5-min Rain = 0
KSC1 141326Z 16010KT 24/19 A2998 RMK A01 T02420190  RH  073%=      5-min Rain = 0
KSC1 141327Z 15009KT 24/19 A2998 RMK A01 T02420190  RH  073%=      5-min Rain = 0
KSC1 141328Z 15011G16KT 24/19 A2998 RMK A01 T02410190  RH  073%=      5-min Rain = 0
KSC1 141329Z 15010G15KT 24/19 A2998 RMK A01 T02410190  RH  073%=      5-min Rain = 0
KSC1 141330Z 15012KT 24/19 A2998 RMK A01 T02410189  RH  073%=      5-min Rain = 0
KSC1 141331Z 16009KT 24/19 A2998 RMK A01 T02410189  RH  073%=      5-min Rain = 0
KSC1 141332Z 16008KT 24/19 A2998 RMK A01 T02420190  RH  073%=      5-min Rain = 0
KSC1 141333Z 16013KT 24/19 A2998 RMK A01 T02430190  RH  072%=      5-min Rain = 0
KSC1 141334Z 16012G17KT 24/19 A2998 RMK A01 T02430190  RH  072%=      5-min Rain = 0
KSC1 141335Z 16008KT 24/19 A2998 RMK A01 T02430190  RH  072%=      5-min Rain = 0
KSC1 141336Z 16008KT 24/19 A2998 RMK A01 T02430190  RH  072%=      5-min Rain = 0
KSC1 141337Z 15009KT 24/19 A2998 RMK A01 T02430190  RH  072%=      5-min Rain = 0
KSC1 141338Z 15010KT 24/19 A2998 RMK A01 T02440190  RH  072%=      5-min Rain = 0
KSC1 141339Z 15009KT 24/19 A2998 RMK A01 T02440190  RH  072%=      5-min Rain = 0
KSC1 141340Z 16009KT 24/19 A2999 RMK A01 T02440190  RH  072%=      5-min Rain = 0
KSC1 141341Z 16010G15KT 24/19 A2999 RMK A01 T02440190  RH  072%=      5-min Rain = 0
KSC1 141342Z 15013KT 24/19 A2999 RMK A01 T02440189  RH  072%=      5-min Rain = 0
KSC1 141343Z 15012KT 24/19 A2999 RMK A01 T02440190  RH  072%=      5-min Rain = 0
KSC1 141344Z 14010G16KT 24/19 A2999 RMK A01 T02430190  RH  072%=      5-min Rain = 0
KSC1 141345Z 16011KT 24/19 A2999 RMK A01 T02430190  RH  072%=      5-min Rain = 0
KSC1 141346Z 15013G18KT 24/19 A2999 RMK A01 T02440190  RH  072%=      5-min Rain = 0
KSC1 141347Z 16012KT 24/19 A2998 RMK A01 T02440190  RH  072%=      5-min Rain = 0
KSC1 141348Z 15013G18KT 24/19 A2998 RMK A01 T02440190  RH  072%=      5-min Rain = 0
KSC1 141349Z 15013KT 24/19 A2998 RMK A01 T02430189  RH  072%=      5-min Rain = 0
KSC1 141350Z 16013KT 24/19 A2998 RMK A01 T02430190  RH  072%=      5-min Rain = 0
KSC1 141351Z 15014KT 24/19 A2998 RMK A01 T02430190  RH  072%=      5-min Rain = 0
KSC1 141352Z 15015KT 24/19 A2999 RMK A01 T02430190  RH  072%=      5-min Rain = 0
KSC1 141353Z 15014KT 24/19 A2999 RMK A01 T02430190  RH  072%=      5-min Rain = 0
KSC1 141354Z 16011KT 24/19 A2999 RMK A01 T02430190  RH  072%=      5-min Rain = 0
KSC1 141355Z 16010G15KT 24/19 A2999 RMK A01 T02430190  RH  072%=      5-min Rain = 0
KSC1 141356Z 16010KT 24/19 A2999 RMK A01 T02440190  RH  072%=      5-min Rain = 0
KSC1 141357Z 15009KT 24/19 A2999 RMK A01 T02440190  RH  072%=      5-min Rain = 0
KSC1 141358Z 16010KT 25/19 A2999 RMK A01 T02450190  RH  071%=      5-min Rain = 0
KSC1 141359Z 17010KT 25/19 A2999 RMK A01 T02450190  RH  071%=      5-min Rain = 0
KSC1 141400Z 16008KT 25/19 A2999 RMK A01 T02450190  RH  071%=      5-min Rain = 0
KSC1 141401Z 15009KT 25/19 A2999 RMK A01 T02450190  RH  071%=      5-min Rain = 0
KSC1 141402Z 16009KT 25/19 A2999 RMK A01 T02460190  RH  071%=      5-min Rain = 0
KSC1 141403Z 15010G15KT 25/19 A2999 RMK A01 T02460190  RH  071%=      5-min Rain = 0
KSC1 141404Z 15012KT 25/19 A2999 RMK A01 T02470190  RH  071%=      5-min Rain = 0
KSC1 141405Z 16012KT 25/19 A2999 RMK A01 T02460190  RH  071%=      5-min Rain = 0
KSC1 141406Z 16012KT 25/19 A2999 RMK A01 T02450189  RH  071%=      5-min Rain = 0
KSC1 141407Z 15012KT 25/19 A2999 RMK A01 T02450190  RH  071%=      5-min Rain = 0
KSC1 141408Z 15013KT 25/19 A2999 RMK A01 T02450190  RH  071%=      5-min Rain = 0
KSC1 141409Z 15012G17KT 25/19 A2999 RMK A01 T02450190  RH  071%=      5-min Rain = 0
KSC1 141410Z 15011G16KT 25/19 A2999 RMK A01 T02460190  RH  071%=      5-min Rain = 0
KSC1 141411Z 15010KT 25/19 A2999 RMK A01 T02460189  RH  071%=      5-min Rain = 0
KSC1 141412Z 15012KT 25/19 A2999 RMK A01 T02460190  RH  071%=      5-min Rain = 0
KSC1 141413Z 16013KT 25/19 A2999 RMK A01 T02460189  RH  071%=      5-min Rain = 0
KSC1 141414Z 16012G17KT 25/19 A2999 RMK A01 T02460190  RH  071%=      5-min Rain = 0
KSC1 141415Z 15015KT 25/19 A2999 RMK A01 T02450189  RH  071%=      5-min Rain = 0
KSC1 141416Z 16013KT 25/19 A2999 RMK A01 T02450190  RH  071%=      5-min Rain = 0
KSC1 141417Z 16014KT 25/19 A2999 RMK A01 T02450190  RH  071%=      5-min Rain = 0
KSC1 141418Z 17009G14KT 25/19 A2999 RMK A01 T02460190  RH  071%=      5-min Rain = 0
KSC1 141419Z 16009KT 25/19 A2999 RMK A01 T02470190  RH  071%=      5-min Rain = 0
KSC1 141420Z 15010KT 25/19 A2999 RMK A01 T02480191  RH  070%=      5-min Rain = 0
KSC1 141421Z 14012G17KT 25/19 A2999 RMK A01 T02500190  RH  070%=      5-min Rain = 0
KSC1 141422Z 15012KT 25/19 A2999 RMK A01 T02500190  RH  069%=      5-min Rain = 0
KSC1 141423Z 16013KT 25/19 A2999 RMK A01 T02500190  RH  069%=      5-min Rain = 0
KSC1 141424Z 16014KT 25/19 A2999 RMK A01 T02510190  RH  069%=      5-min Rain = 0
KSC1 141425Z 15015KT 25/19 A2999 RMK A01 T02510190  RH  069%=      5-min Rain = 0
KSC1 141426Z 16012KT 25/19 A30 RMK A01 T02510190  RH  069%=      5-min Rain = 0
KSC1 141427Z 15012KT 25/19 A30 RMK A01 T02510190  RH  069%=      5-min Rain = 0
KSC1 141428Z 16010KT 25/19 A30 RMK A01 T02510190  RH  069%=      5-min Rain = 0
KSC1 141429Z 16014KT 25/19 A2999 RMK A01 T02510190  RH  069%=      5-min Rain = 0
KSC1 141430Z 16014KT 25/19 A2999 RMK A01 T02520190  RH  068%=      5-min Rain = 0
KSC1 141431Z 15009KT 25/19 A30 RMK A01 T02540191  RH  068%=      5-min Rain = 0
KSC1 141432Z 16013KT 26/19 A2999 RMK A01 T02560191  RH  067%=      5-min Rain = 0
KSC1 141433Z 15012KT 26/19 A2999 RMK A01 T02560190  RH  067%=      5-min Rain = 0
KSC1 141434Z 16012KT 26/19 A2999 RMK A01 T02560190  RH  067%=      5-min Rain = 0
KSC1 141435Z 15013KT 26/19 A2999 RMK A01 T02570191  RH  067%=      5-min Rain = 0
KSC1 141436Z 15012KT 26/19 A2999 RMK A01 T02570190  RH  067%=      5-min Rain = 0
KSC1 141437Z 16012KT 26/19 A2999 RMK A01 T02580191  RH  066%=      5-min Rain = 0
KSC1 141438Z 15012G17KT 26/19 A2999 RMK A01 T02590190  RH  066%=      5-min Rain = 0
KSC1 141439Z 14010G16KT 26/19 A2999 RMK A01 T02590191  RH  066%=      5-min Rain = 0
KSC1 141440Z 15015KT 26/19 A2999 RMK A01 T02600190  RH  066%=      5-min Rain = 0
KSC1 141441Z 15012KT 26/19 A2999 RMK A01 T02600191  RH  066%=      5-min Rain = 0
KSC1 141442Z 15016KT 26/19 A2999 RMK A01 T02620191  RH  065%=      5-min Rain = 0
KSC1 141443Z 15014KT 26/19 A2999 RMK A01 T02630191  RH  064%=      5-min Rain = 0
KSC1 141444Z 14012G17KT 26/19 A2999 RMK A01 T02640191  RH  064%=      5-min Rain = 0
KSC1 141445Z 17014KT 27/19 A2999 RMK A01 T02660191  RH  064%=      5-min Rain = 0
KSC1 141446Z 17011KT 27/19 A2999 RMK A01 T02660190  RH  063%=      5-min Rain = 0
KSC1 141447Z 15011KT 27/19 A2999 RMK A01 T02670191  RH  063%=      5-min Rain = 0
KSC1 141448Z 16010KT 27/19 A2999 RMK A01 T02680191  RH  063%=      5-min Rain = 0
KSC1 141449Z 17008G14KT 27/19 A2999 RMK A01 T02690192  RH  063%=      5-min Rain = 0
KSC1 141450Z 17013KT 27/19 A2999 RMK A01 T02730192  RH  061%=      5-min Rain = 0
KSC1 141451Z 18012KT 27/19 A2999 RMK A01 T02740190  RH  060%=      5-min Rain = 0
KSC1 141452Z 16009G14KT 27/19 A2999 RMK A01 T02720191  RH  061%=      5-min Rain = 0
KSC1 141453Z 17010KT 27/19 A2999 RMK A01 T02720191  RH  061%=      5-min Rain = 0
KSC1 141454Z 16012G17KT 27/19 A2999 RMK A01 T02700190  RH  062%=      5-min Rain = 0
KSC1 141455Z 16012KT 27/19 A2999 RMK A01 T02680188  RH  062%=      5-min Rain = 0
KSC1 141456Z 16010KT 27/19 A2999 RMK A01 T02680189  RH  062%=      5-min Rain = 0
KSC1 141457Z 16011KT 27/19 A2999 RMK A01 T02680189  RH  062%=      5-min Rain = 0
KSC1 141458Z 15011KT 27/19 A2999 RMK A01 T02670188  RH  062%=      5-min Rain = 0
KSC1 141459Z 15012KT 27/19 A2999 RMK A01 T02660188  RH  062%=      5-min Rain = 0
KSC1 141500Z 16011KT 27/19 A2999 RMK A01 T02650189  RH  063%=      5-min Rain = 0
KSC1 141501Z 15010KT 26/19 A2999 RMK A01 T02640189  RH  063%=      5-min Rain = 0
KSC1 141502Z 15011KT 26/19 A2999 RMK A01 T02640189  RH  063%=      5-min Rain = 0
KSC1 141503Z 16010KT 26/19 A2999 RMK A01 T02640190  RH  064%=      5-min Rain = 0
KSC1 141504Z 17012KT 26/19 A2999 RMK A01 T02630189  RH  064%=      5-min Rain = 0
KSC1 141505Z 16007KT 26/19 A2999 RMK A01 T02620189  RH  064%=      5-min Rain = 0
KSC1 141506Z 17009KT 26/19 A2999 RMK A01 T02620189  RH  064%=      5-min Rain = 0
KSC1 141507Z 18010KT 26/19 A2999 RMK A01 T02630188  RH  064%=      5-min Rain = 0
KSC1 141508Z 17009KT 26/19 A30 RMK A01 T02630188  RH  064%=      5-min Rain = 0
KSC1 141509Z 17011KT 26/19 A30 RMK A01 T02630188  RH  064%=      5-min Rain = 0
KSC1 141510Z 16011KT 26/19 A2999 RMK A01 T02630189  RH  064%=      5-min Rain = 0
KSC1 141511Z 19012KT 26/19 A2999 RMK A01 T02630189  RH  064%=      5-min Rain = 0
KSC1 141512Z 19011KT 26/19 A2999 RMK A01 T02630188  RH  063%=      5-min Rain = 0
KSC1 141513Z 19010KT 26/19 A2999 RMK A01 T02620188  RH  064%=      5-min Rain = 0
KSC1 141514Z 18010G15KT 26/19 A2999 RMK A01 T02630188  RH  064%=      5-min Rain = 0
KSC1 141515Z 18012KT 26/19 A2999 RMK A01 T02630188  RH  063%=      5-min Rain = 0
KSC1 141516Z 18011KT 26/19 A2999 RMK A01 T02630189  RH  064%=      5-min Rain = 0
KSC1 141517Z 18012KT 26/19 A2999 RMK A01 T02640189  RH  063%=      5-min Rain = 0
KSC1 141518Z 17011KT 27/19 A2999 RMK A01 T02650189  RH  063%=      5-min Rain = 0
KSC1 141519Z 18010KT 27/19 A2999 RMK A01 T02650189  RH  063%=      5-min Rain = 0
KSC1 141520Z 17009KT 27/19 A2999 RMK A01 T02650190  RH  063%=      5-min Rain = 0
KSC1 141521Z 16010G15KT 27/19 A2999 RMK A01 T02680191  RH  063%=      5-min Rain = 0
KSC1 141522Z 18010KT 27/19 A2999 RMK A01 T02690190  RH  062%=      5-min Rain = 0
KSC1 141523Z 18013KT 27/19 A2999 RMK A01 T02690190  RH  062%=      5-min Rain = 0
KSC1 141524Z 18011KT 27/19 A2999 RMK A01 T02670189  RH  062%=      5-min Rain = 0
KSC1 141525Z 17011KT 27/19 A30 RMK A01 T02650189  RH  063%=      5-min Rain = 0
KSC1 141526Z 18011KT 27/19 A30 RMK A01 T02650190  RH  063%=      5-min Rain = 0
KSC1 141527Z 20008G13KT 27/19 A30 RMK A01 T02660190  RH  063%=      5-min Rain = 0
KSC1 141528Z 19011KT 27/19 A30 RMK A01 T02670190  RH  063%=      5-min Rain = 0
KSC1 141529Z 19010KT 27/19 A30 RMK A01 T02670189  RH  062%=      5-min Rain = 0
KSC1 141530Z 19010KT 27/19 A30 RMK A01 T02660189  RH  063%=      5-min Rain = 0
KSC1 141531Z 18009KT 27/19 A2999 RMK A01 T02660189  RH  063%=      5-min Rain = 0
KSC1 141532Z 18009KT 27/19 A2999 RMK A01 T02670190  RH  063%=      5-min Rain = 0
KSC1 141533Z 18010KT 27/19 A2999 RMK A01 T02680190  RH  062%=      5-min Rain = 0
KSC1 141534Z 17012KT 27/19 A2999 RMK A01 T02690190  RH  062%=      5-min Rain = 0
KSC1 141535Z 18012G17KT 27/19 A2999 RMK A01 T02690190  RH  062%=      5-min Rain = 0
KSC1 141536Z 18011KT 27/19 A2999 RMK A01 T02670189  RH  062%=      5-min Rain = 0
KSC1 141537Z 18013KT 27/19 A2999 RMK A01 T02670189  RH  062%=      5-min Rain = 0
KSC1 141538Z 19010KT 27/19 A2999 RMK A01 T02670188  RH  062%=      5-min Rain = 0
KSC1 141539Z 18009KT 27/19 A2999 RMK A01 T02670189  RH  062%=      5-min Rain = 0
KSC1 141540Z 18009KT 27/19 A2999 RMK A01 T02670189  RH  062%=      5-min Rain = 0
KSC1 141541Z 18007KT 27/19 A2999 RMK A01 T02670190  RH  062%=      5-min Rain = 0
KSC1 141542Z 18009G16KT 27/19 A30 RMK A01 T02700191  RH  062%=      5-min Rain = 0
KSC1 141543Z 18013KT 27/19 A2999 RMK A01 T02710190  RH  061%=      5-min Rain = 0
KSC1 141544Z 17010KT 27/19 A2999 RMK A01 T02700189  RH  061%=      5-min Rain = 0
KSC1 141545Z 18008KT 27/19 A30 RMK A01 T02700190  RH  062%=      5-min Rain = 0
KSC1 141546Z 19007KT 27/19 A30 RMK A01 T02730192  RH  061%=      5-min Rain = 0
KSC1 141547Z 19010KT 28/19 A2999 RMK A01 T02750191  RH  060%=      5-min Rain = 0
KSC1 141548Z 18010KT 28/19 A2999 RMK A01 T02750190  RH  060%=      5-min Rain = 0
KSC1 141549Z 18007KT 28/19 A2999 RMK A01 T02750190  RH  060%=      5-min Rain = 0
KSC1 141550Z 17006KT 28/19 A2999 RMK A01 T02760191  RH  060%=      5-min Rain = 0
KSC1 141551Z 16008KT 28/19 A2999 RMK A01 T02790191  RH  059%=      5-min Rain = 0
KSC1 141552Z 18013KT 28/19 A2999 RMK A01 T02810191  RH  058%=      5-min Rain = 0
KSC1 141553Z 18012KT 28/19 A2999 RMK A01 T02810189  RH  057%=      5-min Rain = 0
KSC1 141554Z 17010KT 28/19 A2999 RMK A01 T02790189  RH  058%=      5-min Rain = 0
KSC1 141555Z 20009KT 28/19 A2999 RMK A01 T02790190  RH  058%=      5-min Rain = 0
KSC1 141556Z 20009KT 28/19 A2999 RMK A01 T02810191  RH  058%=      5-min Rain = 0
KSC1 141557Z 18010KT 28/19 A2999 RMK A01 T02830190  RH  057%=      5-min Rain = 0
KSC1 141558Z 19008KT 28/19 A2999 RMK A01 T02820190  RH  057%=      5-min Rain = 0
KSC1 141559Z 16007KT 28/19 A2999 RMK A01 T02820190  RH  057%=      5-min Rain = 0
KSC1 141600Z 17010KT 28/19 A2999 RMK A01 T02830190  RH  057%=      5-min Rain = 0
KSC1 141601Z 19008KT 28/19 A2999 RMK A01 T02830189  RH  057%=      5-min Rain = 0
KSC1 141602Z 19010KT 28/19 A2999 RMK A01 T02830189  RH  057%=      5-min Rain = 0
KSC1 141603Z 18009KT 28/19 A2999 RMK A01 T02830189  RH  057%=      5-min Rain = 0
KSC1 141604Z 15008KT 28/19 A2999 RMK A01 T02820189  RH  057%=      5-min Rain = 0
KSC1 141605Z 16008KT 29/19 A2999 RMK A01 T02850190  RH  057%=      5-min Rain = 0
KSC1 141606Z 16010KT 29/19 A2999 RMK A01 T02880190  RH  056%=      5-min Rain = 0
KSC1 141607Z 17010KT 29/19 A2999 RMK A01 T02890188  RH  054%=      5-min Rain = 0
KSC1 141608Z 15011G17KT 29/19 A2999 RMK A01 T02910189  RH  054%=      5-min Rain = 0
KSC1 141609Z 15012KT 29/19 A2999 RMK A01 T02920188  RH  054%=      5-min Rain = 0
KSC1 141610Z 16009KT 29/19 A2998 RMK A01 T02940187  RH  053%=      5-min Rain = 0
KSC1 141611Z 16010G15KT 29/19 A2998 RMK A01 T02920188  RH  053%=      5-min Rain = 0
KSC1 141612Z 16011KT 29/19 A2998 RMK A01 T02940189  RH  053%=      5-min Rain = 0
KSC1 141613Z 15012G17KT 30/19 A2998 RMK A01 T02950189  RH  053%=      5-min Rain = 0
KSC1 141614Z 16014KT 30/19 A2998 RMK A01 T02950189  RH  053%=      5-min Rain = 0
KSC1 141615Z 16011KT 29/19 A2998 RMK A01 T02940188  RH  053%=      5-min Rain = 0
KSC1 141616Z 17013G18KT 29/19 A2998 RMK A01 T02930187  RH  053%=      5-min Rain = 0
KSC1 141617Z 16014KT 29/19 A2998 RMK A01 T02940185  RH  052%=      5-min Rain = 0
KSC1 141618Z 16012G17KT 29/19 A2998 RMK A01 T02940186  RH  052%=      5-min Rain = 0
KSC1 141619Z 16013KT 29/19 A2998 RMK A01 T02920186  RH  053%=      5-min Rain = 0
KSC1 141620Z 16011KT 29/19 A2998 RMK A01 T02930187  RH  053%=      5-min Rain = 0
KSC1 141621Z 16013KT 29/19 A2998 RMK A01 T02930186  RH  053%=      5-min Rain = 0
KSC1 141622Z 16016KT 29/19 A2998 RMK A01 T02910185  RH  053%=      5-min Rain = 0
KSC1 141623Z 17012KT 29/19 A2998 RMK A01 T02900186  RH  053%=      5-min Rain = 0
KSC1 141624Z 16013KT 30/19 A2998 RMK A01 T02950187  RH  052%=      5-min Rain = 0
KSC1 141625Z 15013KT 30/19 A2998 RMK A01 T02970186  RH  051%=      5-min Rain = 0
KSC1 141626Z 16015KT 30/19 A2998 RMK A01 T02970185  RH  051%=      5-min Rain = 0
KSC1 141627Z 16014KT 30/18 A2998 RMK A01 T02950184  RH  051%=      5-min Rain = 0
KSC1 141628Z 17015KT 30/19 A2998 RMK A01 T02950186  RH  052%=      5-min Rain = 0
KSC1 141629Z 17011KT 30/19 A2998 RMK A01 T02950186  RH  052%=      5-min Rain = 0
KSC1 141630Z 17009KT 30/19 A2998 RMK A01 T02950187  RH  052%=      5-min Rain = 0
KSC1 141631Z 17012KT 30/19 A2998 RMK A01 T02970186  RH  051%=      5-min Rain = 0
KSC1 141632Z 19013G18KT 30/19 A2998 RMK A01 T03000186  RH  050%=      5-min Rain = 0
KSC1 141633Z 19012KT 30/19 A2998 RMK A01 T02990185  RH  050%=      5-min Rain = 0
KSC1 141634Z 18011G16KT 30/19 A2998 RMK A01 T02990188  RH  051%=      5-min Rain = 0
KSC1 141635Z 18011KT 30/19 A2998 RMK A01 T03000188  RH  051%=      5-min Rain = 0
KSC1 141636Z 19010KT 30/19 A2998 RMK A01 T03020187  RH  050%=      5-min Rain = 0
KSC1 141637Z 20011KT 30/19 A2998 RMK A01 T03020187  RH  050%=      5-min Rain = 0
KSC1 141638Z 19011KT 30/19 A2998 RMK A01 T03020187  RH  050%=      5-min Rain = 0
KSC1 141639Z 19011KT 30/19 A2998 RMK A01 T02990187  RH  051%=      5-min Rain = 0
KSC1 141640Z 15011G16KT 30/19 A2998 RMK A01 T03000186  RH  051%=      5-min Rain = 0
KSC1 141641Z 15010KT 30/18 A2998 RMK A01 T03010183  RH  049%=      5-min Rain = 0
KSC1 141642Z 16012KT 30/18 A2998 RMK A01 T03020184  RH  049%=      5-min Rain = 0
KSC1 141643Z 17014KT 30/18 A2998 RMK A01 T03020182  RH  049%=      5-min Rain = 0
KSC1 141644Z 17013KT 30/18 A2998 RMK A01 T03020180  RH  048%=      5-min Rain = 0
KSC1 141645Z 18013KT 30/18 A2998 RMK A01 T03010182  RH  049%=      5-min Rain = 0
KSC1 141646Z 18011KT 30/18 A2998 RMK A01 T03000183  RH  049%=      5-min Rain = 0
KSC1 141647Z 19011KT 30/18 A2998 RMK A01 T02990184  RH  050%=      5-min Rain = 0
KSC1 141648Z 18010KT 30/18 A2998 RMK A01 T02990184  RH  050%=      5-min Rain = 0
KSC1 141649Z 16010KT 30/18 A2998 RMK A01 T02990183  RH  050%=      5-min Rain = 0
KSC1 141650Z 16012KT 30/19 A2998 RMK A01 T03000185  RH  050%=      5-min Rain = 0
KSC1 141651Z 16008KT 30/19 A2998 RMK A01 T03010185  RH  050%=      5-min Rain = 0
KSC1 141652Z 17010KT 31/19 A2998 RMK A01 T03050188  RH  050%=      5-min Rain = 0
KSC1 141653Z 16010KT 31/19 A2998 RMK A01 T03080187  RH  049%=      5-min Rain = 0
KSC1 141654Z 16009KT 31/19 A2998 RMK A01 T03060187  RH  049%=      5-min Rain = 0
KSC1 141655Z 20010KT 31/18 A2998 RMK A01 T03060184  RH  048%=      5-min Rain = 0
KSC1 141656Z 18013KT 31/18 A2998 RMK A01 T03070179  RH  046%=      5-min Rain = 0
KSC1 141657Z 19014KT 31/17 A2998 RMK A01 T03070174  RH  045%=      5-min Rain = 0
KSC1 141658Z 18007KT 31/18 A2998 RMK A01 T03060176  RH  046%=      5-min Rain = 0
KSC1 141659Z 19006G13KT 31/18 A2998 RMK A01 T03050176  RH  046%=      5-min Rain = 0
KSC1 141700Z 21009KT 31/18 A2998 RMK A01 T03060175  RH  046%=      5-min Rain = 0
KSC1 141701Z 20011KT 31/18 A2998 RMK A01 T03080175  RH  045%=      5-min Rain = 0
KSC1 141702Z 19014KT 31/18 A2998 RMK A01 T03070175  RH  045%=      5-min Rain = 0
KSC1 141703Z 18012KT 30/17 A2998 RMK A01 T03020174  RH  046%=      5-min Rain = 0
KSC1 141704Z 19009KT 30/17 A2998 RMK A01 T02980173  RH  047%=      5-min Rain = 0
KSC1 141705Z 20011KT 30/17 A2998 RMK A01 T02970174  RH  047%=      5-min Rain = 0
KSC1 141706Z 21010KT 30/17 A2998 RMK A01 T02980174  RH  047%=      5-min Rain = 0
KSC1 141707Z 22011KT 30/17 A2998 RMK A01 T02980174  RH  047%=      5-min Rain = 0
KSC1 141708Z 22012KT 30/17 A2998 RMK A01 T02980171  RH  047%=      5-min Rain = 0
KSC1 141709Z 22008G13KT 30/17 A2998 RMK A01 T02970169  RH  046%=      5-min Rain = 0
KSC1 141710Z 21009KT 30/17 A2998 RMK A01 T02990170  RH  046%=      5-min Rain = 0
KSC1 141711Z 21009KT 30/17 A2998 RMK A01 T03040171  RH  045%=      5-min Rain = 0
KSC1 141712Z 19010KT 31/17 A2998 RMK A01 T03080172  RH  044%=      5-min Rain = 0
KSC1 141713Z 20009G15KT 31/17 A2998 RMK A01 T03080172  RH  044%=      5-min Rain = 0
KSC1 141714Z 20013KT 31/17 A2998 RMK A01 T03060171  RH  044%=      5-min Rain = 0
KSC1 141715Z 20008KT 30/17 A2998 RMK A01 T03040170  RH  045%=      5-min Rain = 0
KSC1 141716Z 20007KT 30/17 A2998 RMK A01 T03040171  RH  045%=      5-min Rain = 0
KSC1 141717Z 21008KT 31/17 A2998 RMK A01 T03050172  RH  045%=      5-min Rain = 0
KSC1 141718Z 20008KT 31/17 A2998 RMK A01 T03050172  RH  045%=      5-min Rain = 0
KSC1 141719Z 20009KT 31/17 A2998 RMK A01 T03050172  RH  045%=      5-min Rain = 0
KSC1 141720Z 22012KT 30/17 A2998 RMK A01 T03030171  RH  045%=      5-min Rain = 0
KSC1 141721Z 19011G16KT 30/17 A2998 RMK A01 T03020170  RH  045%=      5-min Rain = 0
KSC1 141722Z 20008KT 30/17 A2998 RMK A01 T03020170  RH  045%=      5-min Rain = 0
KSC1 141723Z 20012KT 30/17 A2998 RMK A01 T03020173  RH  046%=      5-min Rain = 0
KSC1 141724Z 20010KT 30/17 A2998 RMK A01 T03040174  RH  046%=      5-min Rain = 0
KSC1 141725Z 19007KT 30/17 A2998 RMK A01 T03030173  RH  046%=      5-min Rain = 0
KSC1 141726Z 19010G15KT 30/18 A2998 RMK A01 T03040175  RH  046%=      5-min Rain = 0
KSC1 141727Z 19007KT 31/18 A2998 RMK A01 T03060175  RH  046%=      5-min Rain = 0
KSC1 141728Z 20008KT 31/17 A2998 RMK A01 T03070174  RH  045%=      5-min Rain = 0
KSC1 141729Z 19007KT 31/17 A2998 RMK A01 T03060172  RH  045%=      5-min Rain = 0
KSC1 141730Z 22008KT 30/17 A2998 RMK A01 T03040172  RH  045%=      5-min Rain = 0
KSC1 141731Z 24010KT 30/17 A2998 RMK A01 T03040169  RH  044%=      5-min Rain = 0
KSC1 141732Z 23006KT 30/17 A2998 RMK A01 T03040166  RH  043%=      5-min Rain = 0
KSC1 141733Z 21004KT 31/17 A2998 RMK A01 T03060168  RH  044%=      5-min Rain = 0
KSC1 141734Z 20004KT 31/17 A2998 RMK A01 T03090168  RH  043%=      5-min Rain = 0
KSC1 141735Z 21005KT 31/17 A2998 RMK A01 T03100167  RH  042%=      5-min Rain = 0
KSC1 141736Z 21006KT 31/17 A2998 RMK A01 T03090166  RH  042%=      5-min Rain = 0
KSC1 141737Z 21009KT 31/17 A2998 RMK A01 T03070166  RH  043%=      5-min Rain = 0
KSC1 141738Z 25007KT 31/17 A2998 RMK A01 T03080166  RH  042%=      5-min Rain = 0
KSC1 141739Z 24007KT 31/17 A2998 RMK A01 T03080165  RH  042%=      5-min Rain = 0
KSC1 141740Z 24007KT 31/17 A2998 RMK A01 T03090166  RH  042%=      5-min Rain = 0
KSC1 141741Z 22009KT 31/17 A2998 RMK A01 T03110168  RH  042%=      5-min Rain = 0
KSC1 141742Z 18005KT 31/16 A2998 RMK A01 T03140164  RH  040%=      5-min Rain = 0
KSC1 141743Z 19008KT 32/17 A2997 RMK A01 T03150166  RH  041%=      5-min Rain = 0
KSC1 141744Z 18011KT 32/17 A2997 RMK A01 T03160167  RH  041%=      5-min Rain = 0
KSC1 141745Z 18009KT 31/17 A2997 RMK A01 T03130165  RH  041%=      5-min Rain = 0
KSC1 141746Z 17009KT 31/17 A2997 RMK A01 T03100165  RH  042%=      5-min Rain = 0
KSC1 141747Z 17009KT 31/17 A2997 RMK A01 T03120166  RH  042%=      5-min Rain = 0
KSC1 141748Z 18007KT 31/17 A2997 RMK A01 T03130165  RH  041%=      5-min Rain = 0
KSC1 141749Z 20009G17KT 31/17 A2997 RMK A01 T03140165  RH  041%=      5-min Rain = 0
KSC1 141750Z 22008KT 32/16 A2997 RMK A01 T03170163  RH  040%=      5-min Rain = 0
KSC1 141751Z 23007KT 32/16 A2997 RMK A01 T03200162  RH  039%=      5-min Rain = 0
KSC1 141752Z 26008KT 32/16 A2997 RMK A01 T03220160  RH  038%=      5-min Rain = 0
KSC1 141753Z 25010KT 32/16 A2997 RMK A01 T03220158  RH  037%=      5-min Rain = 0
KSC1 141754Z 21007KT 32/16 A2997 RMK A01 T03170157  RH  038%=      5-min Rain = 0
KSC1 141755Z 20006KT 31/16 A2997 RMK A01 T03140158  RH  039%=      5-min Rain = 0
KSC1 141756Z 23007KT 31/16 A2997 RMK A01 T03130159  RH  040%=      5-min Rain = 0
KSC1 141757Z 19008KT 31/16 A2997 RMK A01 T03130160  RH  040%=      5-min Rain = 0
KSC1 141758Z 20007KT 32/16 A2997 RMK A01 T03150163  RH  040%=      5-min Rain = 0
KSC1 141759Z 21007KT 32/16 A2997 RMK A01 T03170164  RH  040%=      5-min Rain = 0
KSC1 141800Z 21008KT 32/16 A2997 RMK A01 T03160163  RH  040%=      5-min Rain = 0
KSC1 141801Z 22005KT 31/16 A2997 RMK A01 T03140164  RH  040%=      5-min Rain = 0
KSC1 141802Z 22006KT 31/16 A2997 RMK A01 T03130164  RH  041%=      5-min Rain = 0
KSC1 141803Z 20007KT 32/17 A2997 RMK A01 T03150167  RH  041%=      5-min Rain = 0
KSC1 141804Z 20008KT 32/17 A2997 RMK A01 T03190170  RH  041%=      5-min Rain = 0
KSC1 141805Z 19011KT 32/17 A2996 RMK A01 T03220170  RH  040%=      5-min Rain = 0
KSC1 141806Z 19009KT 32/17 A2996 RMK A01 T03220168  RH  040%=      5-min Rain = 0
KSC1 141807Z 19009KT 32/17 A2997 RMK A01 T03190168  RH  040%=      5-min Rain = 0
KSC1 141808Z 19009KT 32/17 A2997 RMK A01 T03170165  RH  040%=      5-min Rain = 0
KSC1 141809Z 20009KT 31/17 A2997 RMK A01 T03140165  RH  041%=      5-min Rain = 0
KSC1 141810Z 16008KT 31/16 A2996 RMK A01 T03130164  RH  041%=      5-min Rain = 0
KSC1 141811Z 17009KT 31/16 A2996 RMK A01 T03120164  RH  041%=      5-min Rain = 0
KSC1 141812Z 21005KT 31/17 A2996 RMK A01 T03110166  RH  042%=      5-min Rain = 0
KSC1 141813Z 22004KT 31/17 A2996 RMK A01 T03130166  RH  041%=      5-min Rain = 0
KSC1 141814Z 20008G14KT 31/17 A2996 RMK A01 T03130166  RH  041%=      5-min Rain = 0
KSC1 141815Z 19008KT 32/17 A2996 RMK A01 T03150166  RH  041%=      5-min Rain = 0
KSC1 141816Z 18004KT 32/17 A2996 RMK A01 T03150166  RH  041%=      5-min Rain = 0
KSC1 141817Z 22008G14KT 32/17 A2996 RMK A01 T03150166  RH  041%=      5-min Rain = 0
KSC1 141818Z 22011KT 32/17 A2996 RMK A01 T03160165  RH  040%=      5-min Rain = 0
KSC1 141819Z 22010KT 32/16 A2996 RMK A01 T03160164  RH  040%=      5-min Rain = 0
KSC1 141820Z 20007KT 32/16 A2996 RMK A01 T03160164  RH  040%=      5-min Rain = 0
KSC1 141821Z 22006KT 32/17 A2996 RMK A01 T03160165  RH  040%=      5-min Rain = 0
KSC1 141822Z 20007KT 32/17 A2996 RMK A01 T03180165  RH  040%=      5-min Rain = 0
KSC1 141823Z 20011KT 32/17 A2996 RMK A01 T03210165  RH  039%=      5-min Rain = 0
KSC1 141824Z 25008KT 32/16 A2996 RMK A01 T03230164  RH  039%=      5-min Rain = 0
KSC1 141825Z 24007KT 32/16 A2996 RMK A01 T03210163  RH  039%=      5-min Rain = 0
KSC1 141826Z 23006KT 32/16 A2996 RMK A01 T03190163  RH  039%=      5-min Rain = 0
KSC1 141827Z 23005G10KT 32/16 A2995 RMK A01 T03170162  RH  039%=      5-min Rain = 0
KSC1 141828Z 24008KT 32/16 A2995 RMK A01 T03190162  RH  039%=      5-min Rain = 0
KSC1 141829Z 25012KT 32/16 A2995 RMK A01 T03200161  RH  038%=      5-min Rain = 0
KSC1 141830Z 23009KT 32/16 A2995 RMK A01 T03190160  RH  038%=      5-min Rain = 0
KSC1 141831Z 23007KT 32/16 A2995 RMK A01 T03170159  RH  039%=      5-min Rain = 0
KSC1 141832Z 24005KT 32/16 A2995 RMK A01 T03160158  RH  039%=      5-min Rain = 0
KSC1 141833Z 26007KT 32/16 A2995 RMK A01 T03150159  RH  039%=      5-min Rain = 0
KSC1 141834Z 28008KT 32/16 A2995 RMK A01 T03180159  RH  039%=      5-min Rain = 0
KSC1 141835Z 29005KT 32/16 A2995 RMK A01 T03180160  RH  038%=      5-min Rain = 0
KSC1 141836Z 23007KT 32/16 A2995 RMK A01 T03180160  RH  039%=      5-min Rain = 0
KSC1 141837Z 20007KT 32/16 A2995 RMK A01 T03200161  RH  038%=      5-min Rain = 0
KSC1 141838Z 21008KT 32/16 A2995 RMK A01 T03220162  RH  038%=      5-min Rain = 0
KSC1 141839Z 20008KT 32/16 A2995 RMK A01 T03230162  RH  038%=      5-min Rain = 0
KSC1 141840Z 19009KT 32/16 A2995 RMK A01 T03240162  RH  038%=      5-min Rain = 0
KSC1 141841Z 21006KT 32/16 A2995 RMK A01 T03220160  RH  038%=      5-min Rain = 0
KSC1 141842Z 20007KT 32/16 A2995 RMK A01 T03200161  RH  038%=      5-min Rain = 0
KSC1 141843Z 21008KT 32/16 A2995 RMK A01 T03210160  RH  038%=      5-min Rain = 0
KSC1 141844Z 21009KT 32/16 A2995 RMK A01 T03210161  RH  038%=      5-min Rain = 0
KSC1 141845Z 20008KT 32/16 A2995 RMK A01 T03210161  RH  038%=      5-min Rain = 0
KSC1 141846Z 21009KT 32/16 A2995 RMK A01 T03210160  RH  038%=      5-min Rain = 0
KSC1 141847Z 19004KT 32/16 A2995 RMK A01 T03200159  RH  038%=      5-min Rain = 0
KSC1 141848Z 23004KT 32/16 A2995 RMK A01 T03190159  RH  038%=      5-min Rain = 0
KSC1 141849Z 25004KT 32/16 A2995 RMK A01 T03170159  RH  039%=      5-min Rain = 0
KSC1 141850Z 25003KT 32/16 A2995 RMK A01 T03170159  RH  039%=      5-min Rain = 0
KSC1 141851Z 34002KT 32/16 A2995 RMK A01 T03170159  RH  038%=      5-min Rain = 0
KSC1 141852Z 15003G9KT 32/16 A2995 RMK A01 T03170159  RH  039%=      5-min Rain = 0
KSC1 141853Z 18007KT 32/16 A2995 RMK A01 T03170159  RH  039%=      5-min Rain = 0
KSC1 141854Z 20008KT 32/16 A2995 RMK A01 T03170157  RH  038%=      5-min Rain = 0
KSC1 141855Z 19008KT 32/16 A2995 RMK A01 T03160156  RH  038%=      5-min Rain = 0
KSC1 141856Z 18006KT 32/16 A2995 RMK A01 T03180157  RH  038%=      5-min Rain = 0
KSC1 141857Z 19008KT 32/16 A2995 RMK A01 T03230157  RH  037%=      5-min Rain = 0
KSC1 141858Z 18009KT 33/16 A2995 RMK A01 T03270156  RH  036%=      5-min Rain = 0
KSC1 141859Z 17009KT 33/16 A2995 RMK A01 T03280155  RH  035%=      5-min Rain = 0
KSC1 141900Z 17008KT 33/15 A2995 RMK A01 T03270153  RH  035%=      5-min Rain = 0
KSC1 141901Z 17006KT 32/15 A2995 RMK A01 T03230152  RH  036%=      5-min Rain = 0
KSC1 141902Z 19003KT 32/15 A2995 RMK A01 T03200152  RH  036%=      5-min Rain = 0
KSC1 141903Z 18002KT 32/15 A2995 RMK A01 T03190153  RH  037%=      5-min Rain = 0
KSC1 141904Z 19007KT 32/16 A2995 RMK A01 T03210155  RH  037%=      5-min Rain = 0
KSC1 141905Z 21006KT 32/16 A2995 RMK A01 T03240156  RH  036%=      5-min Rain = 0
KSC1 141906Z 19005KT 32/16 A2995 RMK A01 T03220155  RH  036%=      5-min Rain = 0
KSC1 141907Z 18006KT 32/16 A2995 RMK A01 T03200156  RH  037%=      5-min Rain = 0
KSC1 141908Z 19004KT 32/16 A2995 RMK A01 T03210156  RH  037%=      5-min Rain = 0
KSC1 141909Z 17004KT 32/16 A2995 RMK A01 T03190156  RH  038%=      5-min Rain = 0
KSC1 141910Z 18007KT 32/16 A2995 RMK A01 T03180156  RH  038%=      5-min Rain = 0
KSC1 141911Z 18006KT 32/15 A2994 RMK A01 T03180150  RH  036%=      5-min Rain = 0
KSC1 141912Z 21006KT 32/15 A2994 RMK A01 T03190151  RH  036%=      5-min Rain = 0
KSC1 141913Z 23005KT 32/15 A2994 RMK A01 T03220154  RH  036%=      5-min Rain = 0
KSC1 141914Z 21007KT 32/15 A2994 RMK A01 T03230154  RH  036%=      5-min Rain = 0
KSC1 141915Z 20004KT 32/15 A2994 RMK A01 T03220153  RH  036%=      5-min Rain = 0
KSC1 141916Z 22004KT 32/15 A2994 RMK A01 T03200153  RH  037%=      5-min Rain = 0
KSC1 141917Z 25003KT 32/15 A2994 RMK A01 T03200154  RH  037%=      5-min Rain = 0
KSC1 141918Z 25004KT 32/15 A2994 RMK A01 T03210154  RH  037%=      5-min Rain = 0
KSC1 141919Z 25004KT 32/15 A2994 RMK A01 T03210153  RH  036%=      5-min Rain = 0
KSC1 141920Z 23004KT 32/15 A2994 RMK A01 T03190154  RH  037%=      5-min Rain = 0
KSC1 141921Z 20008KT 32/15 A2994 RMK A01 T03190152  RH  036%=      5-min Rain = 0
KSC1 141922Z 22006KT 32/15 A2994 RMK A01 T03210149  RH  035%=      5-min Rain = 0
KSC1 141923Z 23005KT 32/15 A2994 RMK A01 T03230147  RH  035%=      5-min Rain = 0
KSC1 141924Z 24006KT 32/15 A2994 RMK A01 T03220148  RH  035%=      5-min Rain = 0
KSC1 141925Z 21006KT 32/15 A2994 RMK A01 T03220150  RH  035%=      5-min Rain = 0
KSC1 141926Z 20006KT 32/15 A2994 RMK A01 T03230152  RH  036%=      5-min Rain = 0
KSC1 141927Z 22006KT 32/15 A2994 RMK A01 T03220153  RH  036%=      5-min Rain = 0
KSC1 141928Z 22004KT 32/15 A2994 RMK A01 T03210154  RH  036%=      5-min Rain = 0
KSC1 141929Z 19006KT 32/15 A2994 RMK A01 T03190154  RH  037%=      5-min Rain = 0
KSC1 141930Z 18007G14KT 32/16 A2994 RMK A01 T03200155  RH  037%=      5-min Rain = 0
KSC1 141931Z 18009KT 32/15 A2994 RMK A01 T03220150  RH  035%=      5-min Rain = 0
KSC1 141932Z 18006KT 32/15 A2994 RMK A01 T03220147  RH  035%=      5-min Rain = 0
KSC1 141933Z 19005KT 32/15 A2993 RMK A01 T03210152  RH  036%=      5-min Rain = 0
KSC1 141934Z 17007KT 32/16 A2993 RMK A01 T03200155  RH  037%=      5-min Rain = 0
KSC1 141935Z 16008KT 32/16 A2993 RMK A01 T03200157  RH  037%=      5-min Rain = 0
KSC1 141936Z 15007KT 32/16 A2993 RMK A01 T03230158  RH  037%=      5-min Rain = 0
KSC1 141937Z 15004KT 33/16 A2993 RMK A01 T03250158  RH  037%=      5-min Rain = 0
KSC1 141938Z 24006KT 33/16 A2993 RMK A01 T03280158  RH  036%=      5-min Rain = 0
KSC1 141939Z 21008KT 33/16 A2993 RMK A01 T03290156  RH  035%=      5-min Rain = 0
KSC1 141940Z 19010KT 33/16 A2993 RMK A01 T03310157  RH  035%=      5-min Rain = 0
KSC1 141941Z 18009KT 33/15 A2993 RMK A01 T03290154  RH  035%=      5-min Rain = 0
KSC1 141942Z 17009KT 33/16 A2993 RMK A01 T03270156  RH  036%=      5-min Rain = 0
KSC1 141943Z 17010KT 33/16 A2993 RMK A01 T03260156  RH  036%=      5-min Rain = 0
KSC1 141944Z 16007KT 32/16 A2993 RMK A01 T03230155  RH  036%=      5-min Rain = 0
KSC1 141945Z 15007KT 32/16 A2993 RMK A01 T03230156  RH  037%=      5-min Rain = 0
KSC1 141946Z 17005KT 32/16 A2992 RMK A01 T03220156  RH  037%=      5-min Rain = 0
KSC1 141947Z 20007KT 32/16 A2992 RMK A01 T03230158  RH  037%=      5-min Rain = 0
KSC1 141948Z 22008KT 33/16 A2992 RMK A01 T03280155  RH  035%=      5-min Rain = 0
KSC1 141949Z 21005KT 33/15 A2992 RMK A01 T03260153  RH  035%=      5-min Rain = 0
KSC1 141950Z 22004KT 32/15 A2992 RMK A01 T03230154  RH  036%=      5-min Rain = 0
KSC1 141951Z 23004KT 32/16 A2992 RMK A01 T03240156  RH  036%=      5-min Rain = 0
KSC1 141952Z 23003KT 33/16 A2992 RMK A01 T03260156  RH  036%=      5-min Rain = 0
KSC1 141953Z 17003KT 33/16 A2992 RMK A01 T03250156  RH  036%=      5-min Rain = 0
KSC1 141954Z 18004KT 33/16 A2992 RMK A01 T03250155  RH  036%=      5-min Rain = 0
KSC1 141955Z 16005KT 32/16 A2992 RMK A01 T03240155  RH  036%=      5-min Rain = 0
KSC1 141956Z 18005KT 33/16 A2992 RMK A01 T03250155  RH  036%=      5-min Rain = 0
KSC1 141957Z 20009KT 33/16 A2992 RMK A01 T03250155  RH  036%=      5-min Rain = 0
KSC1 141958Z 21009KT 32/16 A2992 RMK A01 T03230155  RH  036%=      5-min Rain = 0
KSC1 141959Z 23007KT 32/16 A2992 RMK A01 T03230156  RH  037%=      5-min Rain = 0
KSC1 142000Z 22005KT 32/16 A2992 RMK A01 T03240157  RH  037%=      5-min Rain = 0
KSC1 142001Z 20004KT 33/16 A2992 RMK A01 T03260157  RH  036%=      5-min Rain = 0
KSC1 142002Z 23010KT 33/16 A2992 RMK A01 T03270157  RH  036%=      5-min Rain = 0
KSC1 142003Z 23010KT 33/16 A2992 RMK A01 T03280156  RH  036%=      5-min Rain = 0
KSC1 142004Z 21008KT 33/16 A2992 RMK A01 T03290157  RH  036%=      5-min Rain = 0
KSC1 142005Z 19008KT 33/16 A2992 RMK A01 T03290156  RH  035%=      5-min Rain = 0
KSC1 142006Z 23006KT 33/16 A2992 RMK A01 T03280155  RH  036%=      5-min Rain = 0
KSC1 142007Z 20006KT 33/16 A2992 RMK A01 T03270155  RH  036%=      5-min Rain = 0
KSC1 142008Z 18007KT 33/16 A2992 RMK A01 T03270158  RH  036%=      5-min Rain = 0
KSC1 142009Z 19005KT 33/16 A2992 RMK A01 T03290159  RH  036%=      5-min Rain = 0
KSC1 142010Z 16005KT 33/16 A2992 RMK A01 T03270158  RH  036%=      5-min Rain = 0
KSC1 142011Z 20005KT 33/16 A2992 RMK A01 T03270159  RH  036%=      5-min Rain = 0
KSC1 142012Z 18007KT 33/16 A2991 RMK A01 T03290155  RH  035%=      5-min Rain = 0
KSC1 142013Z 22008KT 33/15 A2991 RMK A01 T03300154  RH  035%=      5-min Rain = 0
KSC1 142014Z 21007KT 33/15 A2991 RMK A01 T03300154  RH  035%=      5-min Rain = 0
KSC1 142015Z 23006KT 33/15 A2991 RMK A01 T03300154  RH  035%=      5-min Rain = 0
KSC1 142016Z 23008KT 33/15 A2991 RMK A01 T03310152  RH  034%=      5-min Rain = 0
KSC1 142017Z 23005KT 33/15 A2991 RMK A01 T03310150  RH  034%=      5-min Rain = 0
KSC1 142018Z 23006KT 33/15 A2991 RMK A01 T03310151  RH  034%=      5-min Rain = 0
KSC1 142019Z 27004KT 33/15 A2991 RMK A01 T03330153  RH  034%=      5-min Rain = 0
KSC1 142020Z 26005KT 33/16 A2991 RMK A01 T03330155  RH  034%=      5-min Rain = 0
KSC1 142021Z 26003KT 33/16 A2991 RMK A01 T03320155  RH  035%=      5-min Rain = 0
KSC1 142022Z 22005KT 33/16 A2991 RMK A01 T03320156  RH  035%=      5-min Rain = 0
KSC1 142023Z 22005KT 33/16 A2991 RMK A01 T03340158  RH  035%=      5-min Rain = 0
KSC1 142024Z 17005KT 33/16 A2991 RMK A01 T03340158  RH  035%=      5-min Rain = 0
KSC1 142025Z 18006KT 34/16 A2991 RMK A01 T03350158  RH  035%=      5-min Rain = 0
KSC1 142026Z 20010KT 34/16 A2991 RMK A01 T03350155  RH  034%=      5-min Rain = 0
KSC1 142027Z 21009KT 33/16 A2991 RMK A01 T03340155  RH  034%=      5-min Rain = 0
KSC1 142028Z 22009KT 33/16 A2991 RMK A01 T03310155  RH  035%=      5-min Rain = 0
KSC1 142029Z 23009KT 33/16 A2991 RMK A01 T03290157  RH  035%=      5-min Rain = 0
KSC1 142030Z 24009KT 33/16 A2991 RMK A01 T03300156  RH  035%=      5-min Rain = 0
KSC1 142031Z 21008KT 33/16 A2991 RMK A01 T03310156  RH  035%=      5-min Rain = 0
KSC1 142032Z 21006KT 33/16 A2991 RMK A01 T03320157  RH  035%=      5-min Rain = 0
KSC1 142033Z 18005KT 33/16 A299 RMK A01 T03340155  RH  034%=      5-min Rain = 0
KSC1 142034Z 17005KT 33/16 A299 RMK A01 T03330155  RH  034%=      5-min Rain = 0
KSC1 142035Z 15005KT 33/15 A299 RMK A01 T03310153  RH  034%=      5-min Rain = 0
KSC1 142036Z 18007KT 33/15 A299 RMK A01 T03290152  RH  034%=      5-min Rain = 0
KSC1 142037Z 20006KT 33/15 A299 RMK A01 T03290154  RH  035%=      5-min Rain = 0
KSC1 142038Z 20006KT 33/15 A299 RMK A01 T03280154  RH  035%=      5-min Rain = 0
KSC1 142039Z 20004KT 33/16 A299 RMK A01 T03280156  RH  036%=      5-min Rain = 0
KSC1 142040Z 19005KT 33/16 A299 RMK A01 T03290156  RH  035%=      5-min Rain = 0
KSC1 142041Z 19008KT 33/16 A299 RMK A01 T03300156  RH  035%=      5-min Rain = 0
KSC1 142042Z 20011KT 33/16 A299 RMK A01 T03300156  RH  035%=      5-min Rain = 0
KSC1 142043Z 16008KT 33/16 A299 RMK A01 T03280156  RH  035%=      5-min Rain = 0
KSC1 142044Z 16008KT 33/16 A2989 RMK A01 T03270155  RH  036%=      5-min Rain = 0
KSC1 142045Z 16006KT 33/16 A2989 RMK A01 T03260155  RH  036%=      5-min Rain = 0
KSC1 142046Z 19009KT 33/16 A2989 RMK A01 T03270156  RH  036%=      5-min Rain = 0
KSC1 142047Z 19009KT 33/16 A2989 RMK A01 T03270155  RH  035%=      5-min Rain = 0
KSC1 142048Z 17007KT 33/16 A2989 RMK A01 T03270155  RH  036%=      5-min Rain = 0
KSC1 142049Z 18005KT 33/16 A2989 RMK A01 T03290156  RH  035%=      5-min Rain = 0
KSC1 142050Z 18007KT 33/16 A2989 RMK A01 T03300155  RH  035%=      5-min Rain = 0
KSC1 142051Z 17006KT 33/15 A2989 RMK A01 T03320154  RH  034%=      5-min Rain = 0
KSC1 142052Z 17006KT 33/15 A2989 RMK A01 T03320153  RH  034%=      5-min Rain = 0
KSC1 142053Z 21007KT 33/15 A2989 RMK A01 T03320151  RH  034%=      5-min Rain = 0
KSC1 142054Z 21009KT 33/14 A2989 RMK A01 T03340139  RH  031%=      5-min Rain = 0
KSC1 142055Z 24010KT 33/14 A2989 RMK A01 T03340135  RH  030%=      5-min Rain = 0
KSC1 142056Z 24007KT 33/13 A2988 RMK A01 T03330132  RH  030%=      5-min Rain = 0
KSC1 142057Z 24007KT 33/13 A2988 RMK A01 T03320131  RH  030%=      5-min Rain = 0
KSC1 142058Z 23007KT 33/13 A2988 RMK A01 T03330129  RH  029%=      5-min Rain = 0
KSC1 142059Z 23007KT 34/13 A2988 RMK A01 T03350127  RH  028%=      5-min Rain = 0
KSC1 142100Z 22004KT 34/13 A2988 RMK A01 T03350126  RH  028%=      5-min Rain = 0
KSC1 142101Z 23006KT 34/13 A2988 RMK A01 T03370126  RH  028%=      5-min Rain = 0
KSC1 142102Z 21006KT 34/13 A2988 RMK A01 T03390128  RH  028%=      5-min Rain = 0
KSC1 142103Z 20006KT 34/13 A2988 RMK A01 T03390128  RH  028%=      5-min Rain = 0
KSC1 142104Z 19010KT 34/13 A2988 RMK A01 T03380127  RH  028%=      5-min Rain = 0
KSC1 142105Z 21008KT 34/13 A2988 RMK A01 T03380126  RH  028%=      5-min Rain = 0
KSC1 142106Z 23007KT 34/13 A2988 RMK A01 T03370129  RH  028%=      5-min Rain = 0
KSC1 142107Z 23007KT 34/13 A2987 RMK A01 T03370132  RH  029%=      5-min Rain = 0
KSC1 142108Z 24007KT 34/13 A2987 RMK A01 T03370133  RH  029%=      5-min Rain = 0
KSC1 142109Z 23005KT 34/13 A2987 RMK A01 T03350133  RH  030%=      5-min Rain = 0
KSC1 142110Z 21008G13KT 34/13 A2987 RMK A01 T03360134  RH  029%=      5-min Rain = 0
KSC1 142111Z 21008KT 34/13 A2987 RMK A01 T03390130  RH  028%=      5-min Rain = 0
KSC1 142112Z 21006KT 34/13 A2987 RMK A01 T03370130  RH  028%=      5-min Rain = 0
KSC1 142113Z 20010KT 34/13 A2987 RMK A01 T03360130  RH  029%=      5-min Rain = 0
KSC1 142114Z 20009KT 34/13 A2987 RMK A01 T03360130  RH  029%=      5-min Rain = 0
KSC1 142115Z 22007KT 34/13 A2987 RMK A01 T03350131  RH  029%=      5-min Rain = 0
KSC1 142116Z 21006KT 34/13 A2987 RMK A01 T03350129  RH  029%=      5-min Rain = 0
KSC1 142117Z 21005G10KT 34/13 A2987 RMK A01 T03360130  RH  029%=      5-min Rain = 0
KSC1 142118Z 22006KT 34/13 A2987 RMK A01 T03370129  RH  028%=      5-min Rain = 0
KSC1 142119Z 21007KT 34/13 A2987 RMK A01 T03380128  RH  028%=      5-min Rain = 0
KSC1 142120Z 20009KT 34/13 A2987 RMK A01 T03370129  RH  028%=      5-min Rain = 0
KSC1 142121Z 20006KT 34/13 A2987 RMK A01 T03380129  RH  028%=      5-min Rain = 0
KSC1 142122Z 20004KT 34/13 A2987 RMK A01 T03380128  RH  028%=      5-min Rain = 0
KSC1 142123Z 21005KT 34/13 A2987 RMK A01 T03370127  RH  028%=      5-min Rain = 0
KSC1 142124Z 23004KT 34/13 A2987 RMK A01 T03380128  RH  028%=      5-min Rain = 0
KSC1 142125Z 22003KT 34/13 A2987 RMK A01 T03400127  RH  028%=      5-min Rain = 0
KSC1 142126Z 24004KT 34/13 A2987 RMK A01 T03400127  RH  028%=      5-min Rain = 0
KSC1 142127Z 19004KT 34/13 A2987 RMK A01 T03400127  RH  028%=      5-min Rain = 0
KSC1 142128Z 19004KT 34/13 A2987 RMK A01 T03420127  RH  027%=      5-min Rain = 0
KSC1 142129Z 26004KT 34/12 A2987 RMK A01 T03420124  RH  027%=      5-min Rain = 0
KSC1 142130Z 27009KT 34/12 A2987 RMK A01 T03410122  RH  027%=      5-min Rain = 0
KSC1 142131Z 27008KT 34/12 A2987 RMK A01 T03410116  RH  026%=      5-min Rain = 0
KSC1 142132Z 26005KT 34/12 A2987 RMK A01 T03420115  RH  025%=      5-min Rain = 0
KSC1 142133Z 26008KT 34/11 A2987 RMK A01 T03430113  RH  025%=      5-min Rain = 0
KSC1 142134Z 24007KT 35/11 A2987 RMK A01 T03450111  RH  024%=      5-min Rain = 0
KSC1 142135Z 26010KT 35/11 A2987 RMK A01 T03480111  RH  024%=      5-min Rain = 0
KSC1 142136Z 26007KT 35/11 A2987 RMK A01 T03470106  RH  023%=      5-min Rain = 0
KSC1 142137Z 31005KT 34/11 A2987 RMK A01 T03430105  RH  023%=      5-min Rain = 0
KSC1 142138Z 31006KT 34/11 A2987 RMK A01 T03410106  RH  024%=      5-min Rain = 0
KSC1 142139Z 31005KT 34/11 A2987 RMK A01 T03400105  RH  024%=      5-min Rain = 0
KSC1 142140Z 32006KT 34/11 A2987 RMK A01 T03410106  RH  024%=      5-min Rain = 0
KSC1 142141Z 32004KT 34/11 A2987 RMK A01 T03410105  RH  024%=      5-min Rain = 0
KSC1 142142Z 32004KT 34/11 A2987 RMK A01 T03420107  RH  024%=      5-min Rain = 0
KSC1 142143Z 30005KT 35/11 A2987 RMK A01 T03460108  RH  024%=      5-min Rain = 0
KSC1 142144Z 31004KT 35/11 A2987 RMK A01 T03500105  RH  023%=      5-min Rain = 0
KSC1 142145Z 28002KT 35/11 A2987 RMK A01 T03500105  RH  023%=      5-min Rain = 0
KSC1 142146Z 27004KT 35/10 A2987 RMK A01 T03480104  RH  023%=      5-min Rain = 0
KSC1 142147Z 24003KT 35/10 A2987 RMK A01 T03470103  RH  023%=      5-min Rain = 0
KSC1 142148Z 19003KT 35/11 A2987 RMK A01 T03470108  RH  023%=      5-min Rain = 0
KSC1 142149Z 19007KT 35/12 A2987 RMK A01 T03470116  RH  025%=      5-min Rain = 0
KSC1 142150Z 21007KT 35/12 A2987 RMK A01 T03490118  RH  025%=      5-min Rain = 0
KSC1 142151Z 20007KT 35/12 A2987 RMK A01 T03500117  RH  024%=      5-min Rain = 0
KSC1 142152Z 21008KT 35/11 A2987 RMK A01 T03500114  RH  024%=      5-min Rain = 0
KSC1 142153Z 20006KT 35/11 A2987 RMK A01 T03480114  RH  024%=      5-min Rain = 0
KSC1 142154Z 19006KT 35/11 A2987 RMK A01 T03480114  RH  024%=      5-min Rain = 0
KSC1 142155Z 19008KT 35/11 A2987 RMK A01 T03470112  RH  024%=      5-min Rain = 0
KSC1 142156Z 21005KT 34/11 A2987 RMK A01 T03440110  RH  024%=      5-min Rain = 0
KSC1 142157Z 18003KT 34/11 A2987 RMK A01 T03400110  RH  025%=      5-min Rain = 0
KSC1 142158Z 16007KT 34/11 A2987 RMK A01 T03400112  RH  025%=      5-min Rain = 0
KSC1 142159Z 15004KT 34/11 A2987 RMK A01 T03410113  RH  025%=      5-min Rain = 0
KSC1 142200Z 09004KT 34/11 A2988 RMK A01 T03420113  RH  025%=      5-min Rain = 0
KSC1 142201Z 04012G17KT 34/12 A2988 RMK A01 T03410122  RH  027%=      5-min Rain = 0
KSC1 142202Z 02012G17KT 33/15 A2988 RMK A01 T03310147  RH  033%=      5-min Rain = 0
KSC1 142203Z 04011G16KT 32/15 A2988 RMK A01 T03180153  RH  037%=      5-min Rain = 0
KSC1 142204Z 07016G25KT 31/16 A2988 RMK A01 T03110156  RH  039%=      5-min Rain = 0
KSC1 142205Z 07017KT 31/16 A2988 RMK A01 T03050157  RH  041%=      5-min Rain = 0
KSC1 142206Z 05021KT 30/16 A2988 RMK A01 T02990157  RH  042%=      5-min Rain = 0
KSC1 142207Z 05017KT 29/16 A2988 RMK A01 T02930157  RH  044%=      5-min Rain = 0
KSC1 142208Z 05020G25KT 29/16 A2987 RMK A01 T02890156  RH  044%=      5-min Rain = 0
KSC1 142209Z 05016G21KT 29/16 A2987 RMK A01 T02850155  RH  045%=      5-min Rain = 0
KSC1 142210Z 05016G22KT 28/16 A2987 RMK A01 T02840155  RH  045%=      5-min Rain = 0
KSC1 142211Z 04017KT 29/15 A2987 RMK A01 T02850153  RH  045%=      5-min Rain = 0
KSC1 142212Z 03014KT 29/15 A2987 RMK A01 T02860153  RH  044%=      5-min Rain = 0
KSC1 142213Z 03012KT 29/15 A2987 RMK A01 T02880154  RH  044%=      5-min Rain = 0
KSC1 142214Z 05015KT 29/15 A2987 RMK A01 T02910154  RH  043%=      5-min Rain = 0
KSC1 142215Z 06014KT 29/15 A2987 RMK A01 T02930153  RH  043%=      5-min Rain = 0
KSC1 142216Z 07013G20KT 29/15 A2987 RMK A01 T02940152  RH  042%=      5-min Rain = 0
KSC1 142217Z 06014G20KT 30/15 A2986 RMK A01 T02950152  RH  042%=      5-min Rain = 0
KSC1 142218Z 06012KT 30/15 A2986 RMK A01 T02970151  RH  041%=      5-min Rain = 0
KSC1 142219Z 06016G21KT 30/15 A2986 RMK A01 T02990151  RH  041%=      5-min Rain = 0
KSC1 142220Z 06016KT 30/15 A2986 RMK A01 T02990150  RH  041%=      5-min Rain = 0
KSC1 142221Z 06012G17KT 30/15 A2985 RMK A01 T02970150  RH  041%=      5-min Rain = 0
KSC1 142222Z 06014G19KT 30/15 A2985 RMK A01 T02980152  RH  041%=      5-min Rain = 0
KSC1 142223Z 06015KT 30/15 A2985 RMK A01 T03000152  RH  041%=      5-min Rain = 0
KSC1 142224Z 06012KT 30/15 A2985 RMK A01 T03020153  RH  041%=      5-min Rain = 0
KSC1 142225Z 05013KT 30/15 A2985 RMK A01 T03030154  RH  040%=      5-min Rain = 0
KSC1 142226Z 07014KT 30/16 A2985 RMK A01 T03040155  RH  040%=      5-min Rain = 0
KSC1 142227Z 06013G18KT 31/16 A2985 RMK A01 T03050156  RH  040%=      5-min Rain = 0
KSC1 142228Z 06013KT 31/16 A2985 RMK A01 T03050156  RH  040%=      5-min Rain = 0
KSC1 142229Z 06011KT 31/16 A2985 RMK A01 T03060155  RH  040%=      5-min Rain = 0
KSC1 142230Z 07014G21KT 31/16 A2985 RMK A01 T03070156  RH  040%=      5-min Rain = 0
KSC1 142231Z 07016KT 31/16 A2985 RMK A01 T03080155  RH  040%=      5-min Rain = 0
KSC1 142232Z 07013G18KT 31/15 A2985 RMK A01 T03060153  RH  039%=      5-min Rain = 0
KSC1 142233Z 06018KT 31/15 A2986 RMK A01 T03060149  RH  039%=      5-min Rain = 0
KSC1 142234Z 06011KT 31/15 A2986 RMK A01 T03050148  RH  038%=      5-min Rain = 0
KSC1 142235Z 06012G17KT 31/15 A2986 RMK A01 T03060147  RH  038%=      5-min Rain = 0
KSC1 142236Z 07015KT 31/15 A2986 RMK A01 T03080149  RH  038%=      5-min Rain = 0
KSC1 142237Z 07017KT 31/15 A2986 RMK A01 T03070150  RH  039%=      5-min Rain = 0
KSC1 142238Z 07016G22KT 30/15 A2986 RMK A01 T03040149  RH  039%=      5-min Rain = 0
KSC1 142239Z 07015KT 30/15 A2986 RMK A01 T03010148  RH  040%=      5-min Rain = 0
KSC1 142240Z 06015G21KT 30/15 A2986 RMK A01 T02990147  RH  039%=      5-min Rain = 0
KSC1 142241Z 06017KT 30/14 A2987 RMK A01 T02990142  RH  038%=      5-min Rain = 0
KSC1 142242Z 06019G24KT 30/14 A2987 RMK A01 T02980138  RH  038%=      5-min Rain = 0
KSC1 142243Z 06019G24KT 29/13 A2987 RMK A01 T02940133  RH  037%=      5-min Rain = 0
KSC1 142244Z 06020KT 29/13 A2987 RMK A01 T02910132  RH  038%=      5-min Rain = 0
KSC1 142245Z 06018G23KT 29/13 A2987 RMK A01 T02880133  RH  039%=      5-min Rain = 0
KSC1 142246Z 06019KT 29/13 A2987 RMK A01 T02860134  RH  039%=      5-min Rain = 0
KSC1 142247Z 06018KT 29/14 A2987 RMK A01 T02850136  RH  040%=      5-min Rain = 0
KSC1 142248Z 06016KT 29/14 A2988 RMK A01 T02860137  RH  040%=      5-min Rain = 0
KSC1 142249Z 05018G23KT 29/14 A2988 RMK A01 T02880137  RH  040%=      5-min Rain = 0
KSC1 142250Z 06018KT 29/14 A2988 RMK A01 T02890136  RH  039%=      5-min Rain = 0
KSC1 142251Z 06017G23KT 29/14 A2988 RMK A01 T02900135  RH  038%=      5-min Rain = 0
KSC1 142252Z 06020KT 29/13 A2988 RMK A01 T02910133  RH  038%=      5-min Rain = 0
KSC1 142253Z 06013KT 29/13 A2988 RMK A01 T02900133  RH  038%=      5-min Rain = 0
KSC1 142254Z 06015KT 29/13 A2988 RMK A01 T02900132  RH  038%=      5-min Rain = 0
KSC1 142255Z 06014G20KT 29/13 A2988 RMK A01 T02910132  RH  038%=      5-min Rain = 0
KSC1 142256Z 07023G33KT 29/13 A2989 RMK A01 T02910134  RH  038%=      5-min Rain = 0
KSC1 142257Z 08020G25KT 29/14 A2988 RMK A01 T02860137  RH  040%=      5-min Rain = 0
KSC1 142258Z 07014G20KT 28/14 A2988 RMK A01 T02800136  RH  041%=      5-min Rain = 0
KSC1 142259Z 06016KT 28/14 A2988 RMK A01 T02790137  RH  042%=      5-min Rain = 0
KSC1 142300Z 07014KT 28/14 A2988 RMK A01 T02790136  RH  041%=      5-min Rain = 0
KSC1 142301Z 07013KT 28/14 A2987 RMK A01 T02790136  RH  041%=      5-min Rain = 0
KSC1 142302Z 08014G21KT 28/14 A2987 RMK A01 T02800138  RH  042%=      5-min Rain = 0
KSC1 142303Z 07021G31KT 28/14 A2987 RMK A01 T02830141  RH  042%=      5-min Rain = 0
KSC1 142304Z 07019G24KT 28/15 A2987 RMK A01 T02830147  RH  043%=      5-min Rain = 0
KSC1 142305Z 07017G22KT 28/15 A2987 RMK A01 T02830149  RH  044%=      5-min Rain = 0
KSC1 142306Z 08015G21KT 29/15 A2987 RMK A01 T02850151  RH  044%=      5-min Rain = 0
KSC1 142307Z 08020KT 29/15 A2987 RMK A01 T02870154  RH  045%=      5-min Rain = 0
KSC1 142308Z 09016KT 29/16 A2987 RMK A01 T02850155  RH  045%=      5-min Rain = 0
KSC1 142309Z 08016KT 28/15 A2987 RMK A01 T02830153  RH  045%=      5-min Rain = 0
KSC1 142310Z 08015G21KT 28/15 A2986 RMK A01 T02830148  RH  044%=      5-min Rain = 0
KSC1 142311Z 08013G19KT 28/15 A2986 RMK A01 T02840145  RH  043%=      5-min Rain = 0
KSC1 142312Z 08011G16KT 29/14 A2986 RMK A01 T02870144  RH  042%=      5-min Rain = 0
KSC1 142313Z 08014KT 29/15 A2986 RMK A01 T02910145  RH  041%=      5-min Rain = 0
KSC1 142314Z 09017KT 29/15 A2986 RMK A01 T02910154  RH  044%=      5-min Rain = 0
KSC1 142315Z 09015G20KT 28/16 A2986 RMK A01 T02840158  RH  046%=      5-min Rain = 0
KSC1 142316Z 10018KT 28/16 A2986 RMK A01 T02790158  RH  047%=      5-min Rain = 0
KSC1 142317Z 09017KT 28/16 A2986 RMK A01 T02780160  RH  049%=      5-min Rain = 0
KSC1 142318Z 09017KT 28/16 A2986 RMK A01 T02760161  RH  050%=      5-min Rain = 0
KSC1 142319Z 09015KT 28/16 A2985 RMK A01 T02750162  RH  050%=      5-min Rain = 0
KSC1 142320Z 08013KT 27/16 A2985 RMK A01 T02740161  RH  050%=      5-min Rain = 0
KSC1 142321Z 08014KT 27/16 A2985 RMK A01 T02730159  RH  050%=      5-min Rain = 0
KSC1 142322Z 08016G21KT 27/16 A2985 RMK A01 T02740157  RH  049%=      5-min Rain = 0
KSC1 142323Z 08016KT 28/16 A2985 RMK A01 T02760155  RH  048%=      5-min Rain = 0
KSC1 142324Z 08015KT 28/15 A2985 RMK A01 T02760154  RH  047%=      5-min Rain = 0
KSC1 142325Z 08014G20KT 28/15 A2985 RMK A01 T02750154  RH  047%=      5-min Rain = 0
KSC1 142326Z 08012G17KT 28/16 A2985 RMK A01 T02750155  RH  048%=      5-min Rain = 0
KSC1 142327Z 07015KT 28/15 A2986 RMK A01 T02770154  RH  047%=      5-min Rain = 0
KSC1 142328Z 08015KT 28/15 A2986 RMK A01 T02770153  RH  047%=      5-min Rain = 0
KSC1 142329Z 08014KT 28/15 A2985 RMK A01 T02770153  RH  047%=      5-min Rain = 0
KSC1 142330Z 07010KT 28/15 A2985 RMK A01 T02770154  RH  047%=      5-min Rain = 0
KSC1 142331Z 07009KT 28/16 A2985 RMK A01 T02760155  RH  047%=      5-min Rain = 0
KSC1 142332Z 06013KT 28/16 A2985 RMK A01 T02780155  RH  047%=      5-min Rain = 0
KSC1 142333Z 07012G17KT 28/16 A2985 RMK A01 T02790155  RH  047%=      5-min Rain = 0
KSC1 142334Z 07013G20KT 28/16 A2985 RMK A01 T02800156  RH  047%=      5-min Rain = 0
KSC1 142335Z 06017G22KT 28/16 A2985 RMK A01 T02800157  RH  047%=      5-min Rain = 0
KSC1 142336Z 07017KT 28/16 A2985 RMK A01 T02790160  RH  048%=      5-min Rain = 0
KSC1 142337Z 06016KT 28/16 A2985 RMK A01 T02770162  RH  049%=      5-min Rain = 0
KSC1 142338Z 07013KT 28/16 A2985 RMK A01 T02770162  RH  050%=      5-min Rain = 0
KSC1 142339Z 08010KT 28/16 A2985 RMK A01 T02770162  RH  050%=      5-min Rain = 0
KSC1 142340Z 09012KT 28/16 A2985 RMK A01 T02780163  RH  050%=      5-min Rain = 0
KSC1 142341Z 06008KT 28/16 A2985 RMK A01 T02800164  RH  049%=      5-min Rain = 0
KSC1 142342Z 08012KT 28/16 A2986 RMK A01 T02810164  RH  049%=      5-min Rain = 0
KSC1 142343Z 08012KT 28/16 A2986 RMK A01 T02830161  RH  048%=      5-min Rain = 0
KSC1 142344Z 08013KT 28/16 A2986 RMK A01 T02840159  RH  047%=      5-min Rain = 0
KSC1 142345Z 08012KT 29/16 A2986 RMK A01 T02850160  RH  047%=      5-min Rain = 0
KSC1 142346Z 08012KT 29/16 A2986 RMK A01 T02850160  RH  046%=      5-min Rain = 0
KSC1 142347Z 07010G15KT 29/16 A2986 RMK A01 T02860157  RH  045%=      5-min Rain = 0
KSC1 142348Z 09008KT 29/16 A2986 RMK A01 T02870158  RH  045%=      5-min Rain = 0
KSC1 142349Z 11010KT 29/16 A2986 RMK A01 T02890163  RH  046%=      5-min Rain = 0
KSC1 142350Z 11012KT 29/16 A2986 RMK A01 T02910163  RH  046%=      5-min Rain = 0
KSC1 142351Z 10010G15KT 29/16 A2986 RMK A01 T02920160  RH  045%=      5-min Rain = 0
KSC1 142352Z 10013KT 29/16 A2986 RMK A01 T02940158  RH  044%=      5-min Rain = 0
KSC1 142353Z 08014KT 29/16 A2986 RMK A01 T02920155  RH  044%=      5-min Rain = 0
KSC1 142354Z 08010G15KT 29/16 A2986 RMK A01 T02880157  RH  045%=      5-min Rain = 0
KSC1 142355Z 10013G18KT 29/16 A2986 RMK A01 T02850157  RH  046%=      5-min Rain = 0
KSC1 142356Z 09014KT 29/16 A2986 RMK A01 T02850157  RH  046%=      5-min Rain = 0
KSC1 142357Z 09012KT 28/16 A2986 RMK A01 T02840158  RH  046%=      5-min Rain = 0
KSC1 142358Z 10015KT 28/16 A2986 RMK A01 T02840157  RH  046%=      5-min Rain = 0
KSC1 142359Z 09014KT 28/16 A2986 RMK A01 T02830156  RH  046%=      5-min Rain = 0
KSC1 150000Z 09010G15KT 28/16 A2986 RMK A01 T02820155  RH  046%=      5-min Rain = 0
KSC1 150001Z 10016KT 28/16 A2987 RMK A01 T02830155  RH  046%=      5-min Rain = 0
KSC1 150002Z 10016KT 28/15 A2987 RMK A01 T02830154  RH  046%=      5-min Rain = 0
KSC1 150003Z 09020G25KT 28/16 A2987 RMK A01 T02820155  RH  046%=      5-min Rain = 0
KSC1 150004Z 10019G25KT 28/16 A2987 RMK A01 T02810158  RH  047%=      5-min Rain = 0
KSC1 150005Z 11023G29KT 28/16 A2988 RMK A01 T02770163  RH  050%=      5-min Rain = 0
KSC1 150006Z 09020G26KT 27/17 A2988 RMK A01 T02700165  RH  052%=      5-min Rain = 0
KSC1 150007Z 10019G24KT 27/17 A2988 RMK A01 T02660166  RH  054%=      5-min Rain = 0
KSC1 150008Z 10017KT 26/17 A2988 RMK A01 T02630166  RH  055%=      5-min Rain = 0
KSC1 150009Z 10016G24KT 26/17 A2988 RMK A01 T02610167  RH  056%=      5-min Rain = 0
KSC1 150010Z 10018G23KT 26/17 A2988 RMK A01 T02600168  RH  057%=      5-min Rain = 0
KSC1 150011Z 10018KT 26/17 A2987 RMK A01 T02590168  RH  057%=      5-min Rain = 0
KSC1 150012Z 10019G25KT 26/17 A2987 RMK A01 T02570170  RH  058%=      5-min Rain = 0
KSC1 150013Z 10017G23KT 26/17 A2987 RMK A01 T02560171  RH  059%=      5-min Rain = 0
KSC1 150014Z 10018KT 26/17 A2987 RMK A01 T02550171  RH  060%=      5-min Rain = 0
KSC1 150015Z 10015KT 25/17 A2987 RMK A01 T02540173  RH  061%=      5-min Rain = 0
KSC1 150016Z 11017G23KT 25/17 A2987 RMK A01 T02530174  RH  062%=      5-min Rain = 0
KSC1 150017Z 11021KT 25/17 A2987 RMK A01 T02510172  RH  062%=      5-min Rain = 0
KSC1 150018Z 11019G24KT 25/17 A2987 RMK A01 T02450167  RH  062%=      5-min Rain = 0
KSC1 150019Z 11020G25KT 24/16 A2987 RMK A01 T02390164  RH  063%=      5-min Rain = 0
KSC1 150020Z 11020G25KT 23/16 A2987 RMK A01 T02330159  RH  063%=      5-min Rain = 0
KSC1 150021Z 10020KT 23/16 A2987 RMK A01 T02290155  RH  063%=      5-min Rain = 0
KSC1 150022Z 10021G26KT 23/15 A2987 RMK A01 T02260154  RH  063%=      5-min Rain = 0
KSC1 150023Z 10020KT 22/15 A2987 RMK A01 T02240152  RH  064%=      5-min Rain = 0
KSC1 150024Z 10019G24KT 22/15 A2987 RMK A01 T02230151  RH  064%=      5-min Rain = 0
KSC1 150025Z 11014G19KT 22/15 A2988 RMK A01 T02220150  RH  064%=      5-min Rain = 0
KSC1 150026Z 10012KT 22/15 A2988 RMK A01 T02220152  RH  064%=      5-min Rain = 0
KSC1 150027Z 11012G17KT 22/15 A2989 RMK A01 T02220152  RH  064%=      5-min Rain = 0
KSC1 150028Z 12015G24KT 22/15 A2989 RMK A01 T02220151  RH  064%=      5-min Rain = 0
KSC1 150029Z 12019G24KT 22/15 A2989 RMK A01 T02230149  RH  063%=      5-min Rain = 0
KSC1 150030Z 12018G23KT 22/15 A299 RMK A01 T02220148  RH  063%=      5-min Rain = 0
KSC1 150031Z 12016G24KT 22/15 A299 RMK A01 T02230148  RH  062%=      5-min Rain = 0
KSC1 150032Z 13019G24KT 22/15 A299 RMK A01 T02240148  RH  062%=      5-min Rain = 0
KSC1 150033Z 14018G23KT 22/15 A2989 RMK A01 T02240147  RH  062%=      5-min Rain = 0
KSC1 150034Z 13016G22KT 22/14 A2989 RMK A01 T02210144  RH  061%=      5-min Rain = 0
KSC1 150035Z 12019G26KT 22/14 A2989 RMK A01 T02190143  RH  062%=      5-min Rain = 0
KSC1 150036Z 12016G23KT 22/14 A2989 RMK A01 T02170143  RH  063%=      5-min Rain = 0
KSC1 150037Z 11017G22KT 22/14 A2988 RMK A01 T02170143  RH  063%=      5-min Rain = 0
KSC1 150038Z 12018G23KT 22/14 A2988 RMK A01 T02170144  RH  063%=      5-min Rain = 0
KSC1 150039Z 12014KT 22/15 A2988 RMK A01 T02170145  RH  064%=      5-min Rain = 0
KSC1 150040Z 12015KT 22/15 A2988 RMK A01 T02170145  RH  063%=      5-min Rain = 0
KSC1 150041Z 13013KT 22/14 A2989 RMK A01 T02190144  RH  063%=      5-min Rain = 0
KSC1 150042Z 13012KT 22/15 A2989 RMK A01 T02200145  RH  063%=      5-min Rain = 0
KSC1 150043Z 15011KT 22/14 A299 RMK A01 T02200144  RH  062%=      5-min Rain = 0
KSC1 150044Z 17010KT 22/15 A2991 RMK A01 T02220145  RH  062%=      5-min Rain = 0
KSC1 150045Z 17012KT 22/14 A2991 RMK A01 T02230144  RH  061%=      5-min Rain = 0
KSC1 150046Z 20009KT 22/15 A2991 RMK A01 T02240145  RH  061%=      5-min Rain = 0
KSC1 150047Z 18011KT 22/15 A2991 RMK A01 T02240147  RH  062%=      5-min Rain = 0
KSC1 150048Z 19009KT 22/15 A2991 RMK A01 T02230148  RH  063%=      5-min Rain = 0
KSC1 150049Z 19009KT 22/15 A2991 RMK A01 T02210152  RH  065%=      5-min Rain = 0
KSC1 150050Z 18006KT 22/15 A2991 RMK A01 T02180153  RH  067%=      5-min Rain = 0
KSC1 150051Z 15001KT 22/15 A2991 RMK A01 T02150154  RH  068%=      5-min Rain = 0
KSC1 150052Z 02002KT 21/15 A2991 RMK A01 T02140154  RH  069%=      5-min Rain = 0
KSC1 150053Z 10004KT 21/15 A2991 RMK A01 T02140153  RH  068%=      5-min Rain = 0
KSC1 150054Z 10003KT 21/15 A2991 RMK A01 T02130154  RH  069%=      5-min Rain = 0
KSC1 150055Z 07001KT 21/16 A2991 RMK A01 T02130158  RH  071%=      5-min Rain = 0
KSC1 150056Z 08004KT 21/16 A2991 RMK A01 T02130157  RH  070%=      5-min Rain = 0
KSC1 150057Z 10003KT 21/16 A2991 RMK A01 T02130155  RH  069%=      5-min Rain = 0
KSC1 150058Z 09003KT 21/16 A2991 RMK A01 T02130156  RH  070%=      5-min Rain = 0
KSC1 150059Z 08006KT 21/16 A2991 RMK A01 T02130156  RH  070%=      5-min Rain = 0
KSC1 150100Z 09005KT 21/16 A2991 RMK A01 T02130156  RH  070%=      5-min Rain = 0
KSC1 150101Z 08006KT 21/16 A299 RMK A01 T02130156  RH  070%=      5-min Rain = 0
KSC1 150102Z 08007KT 21/16 A299 RMK A01 T02130157  RH  070%=      5-min Rain = 0
KSC1 150103Z 09008KT 21/16 A299 RMK A01 T02140158  RH  070%=      5-min Rain = 0
KSC1 150104Z 09008KT 21/16 A2991 RMK A01 T02140157  RH  070%=      5-min Rain = 0
KSC1 150105Z 09010KT 22/16 A2991 RMK A01 T02150158  RH  070%=      5-min Rain = 0
KSC1 150106Z 10008KT 22/16 A2991 RMK A01 T02150160  RH  071%=      5-min Rain = 0
KSC1 150107Z 10011KT 22/16 A2991 RMK A01 T02150162  RH  072%=      5-min Rain = 0
KSC1 150108Z 10010KT 22/16 A2991 RMK A01 T02150164  RH  073%=      5-min Rain = 0
KSC1 150109Z 11010KT 21/16 A2991 RMK A01 T02140164  RH  073%=      5-min Rain = 0
KSC1 150110Z 12009KT 21/17 A2991 RMK A01 T02140165  RH  074%=      5-min Rain = 0
KSC1 150111Z 13008KT 21/17 A2992 RMK A01 T02130166  RH  074%=      5-min Rain = 0
KSC1 150112Z 14008KT 21/17 A2992 RMK A01 T02140167  RH  075%=      5-min Rain = 0
KSC1 150113Z 14007KT 21/16 A2992 RMK A01 T02130164  RH  073%=      5-min Rain = 0
KSC1 150114Z 13006KT 21/16 A2991 RMK A01 T02140161  RH  072%=      5-min Rain = 0
KSC1 150115Z 14007KT 22/16 A2991 RMK A01 T02160159  RH  070%=      5-min Rain = 0
KSC1 150116Z 14008KT 22/16 A2991 RMK A01 T02160159  RH  070%=      5-min Rain = 0
KSC1 150117Z 13007KT 22/16 A2991 RMK A01 T02170159  RH  069%=      5-min Rain = 0
KSC1 150118Z 12008KT 22/16 A2991 RMK A01 T02170158  RH  069%=      5-min Rain = 0
KSC1 150119Z 12009KT 22/16 A2992 RMK A01 T02170158  RH  069%=      5-min Rain = 0
KSC1 150120Z 12009KT 22/16 A2992 RMK A01 T02170158  RH  069%=      5-min Rain = 0
KSC1 150121Z 12008KT 22/16 A2992 RMK A01 T02170159  RH  069%=      5-min Rain = 0
KSC1 150122Z 11006KT 22/16 A2992 RMK A01 T02170159  RH  070%=      5-min Rain = 0
KSC1 150123Z 13005KT 22/16 A2992 RMK A01 T02170160  RH  070%=      5-min Rain = 0
KSC1 150124Z 14005KT 22/16 A2992 RMK A01 T02170160  RH  070%=      5-min Rain = 0
KSC1 150125Z 14006KT 22/16 A2992 RMK A01 T02170159  RH  069%=      5-min Rain = 0
KSC1 150126Z 15005KT 22/16 A2992 RMK A01 T02170157  RH  068%=      5-min Rain = 0
KSC1 150127Z 15008KT 22/16 A2992 RMK A01 T02180155  RH  067%=      5-min Rain = 0
KSC1 150128Z 14008KT 22/15 A2992 RMK A01 T02180152  RH  066%=      5-min Rain = 0
KSC1 150129Z 13007KT 22/15 A2992 RMK A01 T02190153  RH  066%=      5-min Rain = 0
KSC1 150130Z 13009KT 22/15 A2992 RMK A01 T02190151  RH  065%=      5-min Rain = 0
KSC1 150131Z 14010KT 22/15 A2993 RMK A01 T02190149  RH  064%=      5-min Rain = 0
KSC1 150132Z 14009KT 22/15 A2992 RMK A01 T02190148  RH  064%=      5-min Rain = 0
KSC1 150133Z 15009KT 22/15 A2992 RMK A01 T02200148  RH  064%=      5-min Rain = 0
KSC1 150134Z 14009KT 22/15 A2992 RMK A01 T02190148  RH  064%=      5-min Rain = 0
KSC1 150135Z 15008KT 22/15 A2992 RMK A01 T02190148  RH  064%=      5-min Rain = 0
KSC1 150136Z 14006KT 22/15 A2992 RMK A01 T02190148  RH  064%=      5-min Rain = 0
KSC1 150137Z 13005KT 22/15 A2992 RMK A01 T02180148  RH  064%=      5-min Rain = 0
KSC1 150138Z 13008KT 22/15 A2992 RMK A01 T02180149  RH  065%=      5-min Rain = 0
KSC1 150139Z 13007KT 22/15 A2992 RMK A01 T02170148  RH  065%=      5-min Rain = 0
KSC1 150140Z 13006KT 22/15 A2992 RMK A01 T02180149  RH  065%=      5-min Rain = 0
KSC1 150141Z 13007KT 22/15 A2992 RMK A01 T02170149  RH  065%=      5-min Rain = 0
KSC1 150142Z 13007KT 22/15 A2992 RMK A01 T02170149  RH  065%=      5-min Rain = 0
KSC1 150143Z 13006KT 22/15 A2992 RMK A01 T02170149  RH  065%=      5-min Rain = 0
KSC1 150144Z 13007KT 22/15 A2992 RMK A01 T02170149  RH  065%=      5-min Rain = 0
KSC1 150145Z 13008KT 22/15 A2992 RMK A01 T02170149  RH  065%=      5-min Rain = 0
KSC1 150146Z 13005KT 22/15 A2992 RMK A01 T02180149  RH  065%=      5-min Rain = 0
KSC1 150147Z 13005KT 22/15 A2991 RMK A01 T02170149  RH  065%=      5-min Rain = 0
KSC1 150148Z 13005KT 22/15 A2991 RMK A01 T02180149  RH  065%=      5-min Rain = 0
KSC1 150149Z 14004KT 22/15 A2992 RMK A01 T02180149  RH  065%=      5-min Rain = 0
KSC1 150150Z 14007G12KT 22/15 A2992 RMK A01 T02180150  RH  065%=      5-min Rain = 0
KSC1 150151Z 14007KT 22/15 A2992 RMK A01 T02190150  RH  065%=      5-min Rain = 0
KSC1 150152Z 13006KT 22/15 A2991 RMK A01 T02190151  RH  065%=      5-min Rain = 0
KSC1 150153Z 12004KT 22/15 A2991 RMK A01 T02200151  RH  065%=      5-min Rain = 0
KSC1 150154Z 12004KT 22/15 A2991 RMK A01 T02200151  RH  065%=      5-min Rain = 0
KSC1 150155Z 10003KT 22/15 A2991 RMK A01 T02200151  RH  065%=      5-min Rain = 0
KSC1 150156Z 09003KT 22/15 A2991 RMK A01 T02200151  RH  065%=      5-min Rain = 0
KSC1 150157Z 07003KT 22/15 A2991 RMK A01 T02200150  RH  065%=      5-min Rain = 0
KSC1 150158Z 07003KT 22/15 A2991 RMK A01 T02190151  RH  065%=      5-min Rain = 0
KSC1 150159Z 05003KT 22/15 A2991 RMK A01 T02190150  RH  065%=      5-min Rain = 0
KSC1 150200Z 04003KT 22/15 A2991 RMK A01 T02180151  RH  065%=      5-min Rain = 0
KSC1 150201Z 04003KT 22/15 A2991 RMK A01 T02170150  RH  066%=      5-min Rain = 0
KSC1 150202Z 05004KT 22/15 A2991 RMK A01 T02160150  RH  066%=      5-min Rain = 0
KSC1 150203Z 06003KT 22/15 A2991 RMK A01 T02150150  RH  066%=      5-min Rain = 0
KSC1 150204Z 07002KT 22/15 A2991 RMK A01 T02150150  RH  066%=      5-min Rain = 0
KSC1 150205Z 08002KT 21/15 A2991 RMK A01 T02140150  RH  067%=      5-min Rain = 0
KSC1 150206Z 09002KT 21/15 A2991 RMK A01 T02140150  RH  067%=      5-min Rain = 0
KSC1 150207Z 06002KT 21/15 A2991 RMK A01 T02140150  RH  067%=      5-min Rain = 0
KSC1 150208Z 05003KT 21/15 A2991 RMK A01 T02140150  RH  067%=      5-min Rain = 0
KSC1 150209Z 04003KT 21/15 A2991 RMK A01 T02130149  RH  067%=      5-min Rain = 0
KSC1 150210Z 05003KT 21/15 A2991 RMK A01 T02130149  RH  067%=      5-min Rain = 0
KSC1 150211Z 05003KT 21/15 A2991 RMK A01 T02130149  RH  067%=      5-min Rain = 0
KSC1 150212Z 04004KT 21/15 A2991 RMK A01 T02130149  RH  067%=      5-min Rain = 0
KSC1 150213Z 04005KT 21/15 A2991 RMK A01 T02120149  RH  067%=      5-min Rain = 0
KSC1 150214Z 04005KT 21/15 A2991 RMK A01 T02120149  RH  067%=      5-min Rain = 0
KSC1 150215Z 04006KT 21/15 A2991 RMK A01 T02120149  RH  067%=      5-min Rain = 0
KSC1 150216Z 04005KT 21/15 A2991 RMK A01 T02120150  RH  068%=      5-min Rain = 0
KSC1 150217Z 04004KT 21/15 A2991 RMK A01 T02110150  RH  068%=      5-min Rain = 0
KSC1 150218Z 04004KT 21/15 A2991 RMK A01 T02110151  RH  068%=      5-min Rain = 0
KSC1 150219Z 04003KT 21/15 A2991 RMK A01 T02110151  RH  069%=      5-min Rain = 0
KSC1 150220Z 06003KT 21/15 A2991 RMK A01 T02110151  RH  069%=      5-min Rain = 0
KSC1 150221Z 04002KT 21/15 A2991 RMK A01 T02100152  RH  069%=      5-min Rain = 0
KSC1 150222Z 04002KT 21/15 A2991 RMK A01 T02110152  RH  069%=      5-min Rain = 0
KSC1 150223Z 03005KT 21/15 A2991 RMK A01 T02100152  RH  070%=      5-min Rain = 0
KSC1 150224Z 03006KT 21/15 A2991 RMK A01 T02100153  RH  070%=      5-min Rain = 0
KSC1 150225Z 03004KT 21/15 A2991 RMK A01 T02110153  RH  069%=      5-min Rain = 0
KSC1 150226Z 03004KT 21/15 A2991 RMK A01 T02120153  RH  069%=      5-min Rain = 0
KSC1 150227Z 05004KT 21/15 A2991 RMK A01 T02130153  RH  068%=      5-min Rain = 0
KSC1 150228Z 04004KT 21/15 A2991 RMK A01 T02130152  RH  068%=      5-min Rain = 0
KSC1 150229Z 04004KT 21/15 A2991 RMK A01 T02130153  RH  068%=      5-min Rain = 0
KSC1 150230Z 05003KT 21/15 A2991 RMK A01 T02130152  RH  068%=      5-min Rain = 0
KSC1 150231Z 05002KT 21/15 A2992 RMK A01 T02140152  RH  068%=      5-min Rain = 0
KSC1 150232Z 06002KT 22/15 A2992 RMK A01 T02150152  RH  067%=      5-min Rain = 0
KSC1 150233Z 12002KT 22/15 A2992 RMK A01 T02160152  RH  067%=      5-min Rain = 0
KSC1 150234Z 14002KT 22/15 A2992 RMK A01 T02160151  RH  066%=      5-min Rain = 0
KSC1 150235Z 13001KT 22/15 A2992 RMK A01 T02150152  RH  067%=      5-min Rain = 0
KSC1 150236Z 16003KT 21/15 A2992 RMK A01 T02140151  RH  067%=      5-min Rain = 0
KSC1 150237Z 11002KT 21/15 A2992 RMK A01 T02120150  RH  068%=      5-min Rain = 0
KSC1 150238Z 11003KT 21/15 A2992 RMK A01 T02110150  RH  068%=      5-min Rain = 0
KSC1 150239Z 11003KT 21/15 A2992 RMK A01 T02100150  RH  068%=      5-min Rain = 0
KSC1 150240Z 11004KT 21/15 A2992 RMK A01 T02100150  RH  069%=      5-min Rain = 0
KSC1 150241Z 13003KT 21/15 A2992 RMK A01 T02090151  RH  069%=      5-min Rain = 0
KSC1 150242Z 12004KT 21/15 A2992 RMK A01 T02090152  RH  070%=      5-min Rain = 0
KSC1 150243Z 13004KT 21/15 A2992 RMK A01 T02090152  RH  070%=      5-min Rain = 0
KSC1 150244Z 13004KT 21/15 A2992 RMK A01 T02090153  RH  070%=      5-min Rain = 0
KSC1 150245Z 12004KT 21/15 A2993 RMK A01 T02090153  RH  070%=      5-min Rain = 0
KSC1 150246Z 09005KT 21/15 A2993 RMK A01 T02080153  RH  071%=      5-min Rain = 0
KSC1 150247Z 08006KT 21/15 A2993 RMK A01 T02070153  RH  071%=      5-min Rain = 0
KSC1 150248Z 08005KT 21/15 A2993 RMK A01 T02060154  RH  072%=      5-min Rain = 0
KSC1 150249Z 08006KT 21/16 A2993 RMK A01 T02050155  RH  073%=      5-min Rain = 0
KSC1 150250Z 08006KT 21/16 A2994 RMK A01 T02050156  RH  073%=      5-min Rain = 0
KSC1 150251Z 09008KT 20/16 A2994 RMK A01 T02040156  RH  074%=      5-min Rain = 0
KSC1 150252Z 10009KT 20/16 A2994 RMK A01 T02040157  RH  074%=      5-min Rain = 0
KSC1 150253Z 13011KT 21/16 A2994 RMK A01 T02060156  RH  073%=      5-min Rain = 0
KSC1 150254Z 13009KT 21/15 A2994 RMK A01 T02090154  RH  071%=      5-min Rain = 0
KSC1 150255Z 13007KT 21/15 A2994 RMK A01 T02120153  RH  069%=      5-min Rain = 0
KSC1 150256Z 15007KT 21/15 A2994 RMK A01 T02120153  RH  069%=      5-min Rain = 0
KSC1 150257Z 15006KT 21/15 A2994 RMK A01 T02120153  RH  069%=      5-min Rain = 0
KSC1 150258Z 14005KT 21/15 A2994 RMK A01 T02130152  RH  069%=      5-min Rain = 0
KSC1 150259Z 13005KT 21/15 A2994 RMK A01 T02130152  RH  068%=      5-min Rain = 0
KSC1 150300Z 13005KT 21/15 A2994 RMK A01 T02130151  RH  068%=      5-min Rain = 0
KSC1 150301Z 12005KT 21/15 A2994 RMK A01 T02130151  RH  067%=      5-min Rain = 0
KSC1 150302Z 12007KT 21/15 A2995 RMK A01 T02130148  RH  066%=      5-min Rain = 0
KSC1 150303Z 11006KT 21/15 A2995 RMK A01 T02130147  RH  066%=      5-min Rain = 0
KSC1 150304Z 12010KT 21/15 A2995 RMK A01 T02130145  RH  065%=      5-min Rain = 0
KSC1 150305Z 11009KT 21/14 A2995 RMK A01 T02130142  RH  064%=      5-min Rain = 0
KSC1 150306Z 12010KT 21/14 A2995 RMK A01 T02120142  RH  064%=      5-min Rain = 0
KSC1 150307Z 11010KT 21/14 A2995 RMK A01 T02110141  RH  064%=      5-min Rain = 0
KSC1 150308Z 12009KT 21/14 A2995 RMK A01 T02110141  RH  064%=      5-min Rain = 0
KSC1 150309Z 13010KT 21/14 A2995 RMK A01 T02100141  RH  065%=      5-min Rain = 0
KSC1 150310Z 13009G14KT 21/14 A2995 RMK A01 T02080142  RH  066%=      5-min Rain = 0
KSC1 150311Z 13008KT 21/14 A2995 RMK A01 T02070141  RH  066%=      5-min Rain = 0
KSC1 150312Z 14009KT 21/14 A2995 RMK A01 T02060142  RH  066%=      5-min Rain = 0
KSC1 150313Z 14008KT 21/14 A2995 RMK A01 T02050142  RH  067%=      5-min Rain = 0
KSC1 150314Z 13009KT 21/14 A2995 RMK A01 T02050142  RH  067%=      5-min Rain = 0
KSC1 150315Z 13009KT 21/14 A2995 RMK A01 T02050142  RH  067%=      5-min Rain = 0
KSC1 150316Z 14009KT 21/14 A2995 RMK A01 T02050142  RH  067%=      5-min Rain = 0
KSC1 150317Z 13008KT 21/14 A2995 RMK A01 T02050142  RH  067%=      5-min Rain = 0
KSC1 150318Z 12008KT 20/14 A2995 RMK A01 T02040142  RH  067%=      5-min Rain = 0
KSC1 150319Z 11009KT 20/14 A2996 RMK A01 T02040142  RH  068%=      5-min Rain = 0
KSC1 150320Z 10009KT 20/14 A2996 RMK A01 T02030142  RH  068%=      5-min Rain = 0
KSC1 150321Z 10009KT 20/14 A2996 RMK A01 T02030142  RH  068%=      5-min Rain = 0
KSC1 150322Z 10009G14KT 20/14 A2996 RMK A01 T02030142  RH  068%=      5-min Rain = 0
KSC1 150323Z 11011KT 20/14 A2996 RMK A01 T02020142  RH  068%=      5-min Rain = 0
KSC1 150324Z 11011KT 20/14 A2996 RMK A01 T02030143  RH  069%=      5-min Rain = 0
KSC1 150325Z 11009KT 20/14 A2996 RMK A01 T02020144  RH  069%=      5-min Rain = 0
KSC1 150326Z 11007KT 20/14 A2996 RMK A01 T02020144  RH  069%=      5-min Rain = 0
KSC1 150327Z 11005KT 20/14 A2996 RMK A01 T02020144  RH  069%=      5-min Rain = 0
KSC1 150328Z 11004KT 20/14 A2996 RMK A01 T02010143  RH  069%=      5-min Rain = 0
KSC1 150329Z 11004KT 20/14 A2996 RMK A01 T02010144  RH  070%=      5-min Rain = 0
KSC1 150330Z 10004KT 20/14 A2996 RMK A01 T02000143  RH  070%=      5-min Rain = 0
KSC1 150331Z 11003KT 20/14 A2996 RMK A01 T02000144  RH  070%=      5-min Rain = 0
KSC1 150332Z 11003KT 20/14 A2996 RMK A01 T02000144  RH  070%=      5-min Rain = 0
KSC1 150333Z 11003KT 20/14 A2996 RMK A01 T02000144  RH  070%=      5-min Rain = 0
KSC1 150334Z 11001KT 20/14 A2995 RMK A01 T02000144  RH  070%=      5-min Rain = 0
KSC1 150335Z 11002KT 20/14 A2995 RMK A01 T01990144  RH  070%=      5-min Rain = 0
KSC1 150336Z 11004KT 20/14 A2996 RMK A01 T01990144  RH  070%=      5-min Rain = 0
KSC1 150337Z 11003KT 20/14 A2996 RMK A01 T01990144  RH  071%=      5-min Rain = 0
KSC1 150338Z 11004KT 20/14 A2996 RMK A01 T01990144  RH  071%=      5-min Rain = 0
KSC1 150339Z 10005KT 20/15 A2996 RMK A01 T01990145  RH  071%=      5-min Rain = 0
KSC1 150340Z 10006KT 20/15 A2996 RMK A01 T01990145  RH  071%=      5-min Rain = 0
KSC1 150341Z 09005KT 20/15 A2996 RMK A01 T02000145  RH  071%=      5-min Rain = 0
KSC1 150342Z 08004KT 20/15 A2996 RMK A01 T02000145  RH  070%=      5-min Rain = 0
KSC1 150343Z 07003KT 20/15 A2996 RMK A01 T02010145  RH  070%=      5-min Rain = 0
KSC1 150344Z 09004KT 20/15 A2996 RMK A01 T02000145  RH  070%=      5-min Rain = 0
KSC1 150345Z 10005KT 20/15 A2996 RMK A01 T02000146  RH  071%=      5-min Rain = 0
KSC1 150346Z 10007KT 20/15 A2996 RMK A01 T01990146  RH  071%=      5-min Rain = 0
KSC1 150347Z 11007KT 20/15 A2996 RMK A01 T02000147  RH  072%=      5-min Rain = 0
KSC1 150348Z 10006KT 20/15 A2996 RMK A01 T02000147  RH  072%=      5-min Rain = 0
KSC1 150349Z 11005KT 20/15 A2996 RMK A01 T01990147  RH  072%=      5-min Rain = 0
KSC1 150350Z 10006KT 20/15 A2996 RMK A01 T01990148  RH  072%=      5-min Rain = 0
KSC1 150351Z 10006KT 20/15 A2996 RMK A01 T01990148  RH  073%=      5-min Rain = 0
KSC1 150352Z 10006KT 20/15 A2996 RMK A01 T01990148  RH  073%=      5-min Rain = 0
KSC1 150353Z 11007KT 20/15 A2997 RMK A01 T01990149  RH  073%=      5-min Rain = 0
KSC1 150354Z 10007KT 20/15 A2997 RMK A01 T01990149  RH  073%=      5-min Rain = 0
KSC1 150355Z 11008KT 20/15 A2997 RMK A01 T01980149  RH  073%=      5-min Rain = 0
KSC1 150356Z 11007KT 20/15 A2997 RMK A01 T01980150  RH  074%=      5-min Rain = 0
KSC1 150357Z 13007KT 20/15 A2997 RMK A01 T01980150  RH  074%=      5-min Rain = 0
KSC1 150358Z 11007KT 20/15 A2997 RMK A01 T01980151  RH  074%=      5-min Rain = 0
KSC1 150359Z 13011G16KT 20/15 A2997 RMK A01 T01980151  RH  075%=      5-min Rain = 0
KSC1 150400Z 13010KT 20/15 A2997 RMK A01 T01980153  RH  075%=      5-min Rain = 0
KSC1 150401Z 12011KT 20/16 A2997 RMK A01 T02000155  RH  075%=      5-min Rain = 0
KSC1 150402Z 13011KT 20/16 A2997 RMK A01 T02000155  RH  075%=      5-min Rain = 0
KSC1 150403Z 13011KT 20/16 A2997 RMK A01 T02000156  RH  076%=      5-min Rain = 0
KSC1 150404Z 13013KT 20/16 A2997 RMK A01 T02010157  RH  076%=      5-min Rain = 0
KSC1 150405Z 13011KT 20/16 A2997 RMK A01 T02010158  RH  076%=      5-min Rain = 0
KSC1 150406Z 12010KT 20/16 A2997 RMK A01 T02000158  RH  077%=      5-min Rain = 0
KSC1 150407Z 12010KT 20/16 A2997 RMK A01 T02000159  RH  077%=      5-min Rain = 0
KSC1 150408Z 12007KT 20/16 A2997 RMK A01 T02000158  RH  077%=      5-min Rain = 0
KSC1 150409Z 12007KT 20/16 A2997 RMK A01 T01990159  RH  078%=      5-min Rain = 0
KSC1 150410Z 12008KT 20/16 A2997 RMK A01 T01990159  RH  078%=      5-min Rain = 0
KSC1 150411Z 12008KT 20/16 A2997 RMK A01 T01980159  RH  078%=      5-min Rain = 0
KSC1 150412Z 11008KT 20/16 A2998 RMK A01 T01980159  RH  078%=      5-min Rain = 0
KSC1 150413Z 12009KT 20/16 A2998 RMK A01 T01980160  RH  079%=      5-min Rain = 0
KSC1 150414Z 12009KT 20/16 A2997 RMK A01 T01980160  RH  079%=      5-min Rain = 0
KSC1 150415Z 12009KT 20/16 A2997 RMK A01 T01980160  RH  079%=      5-min Rain = 0
KSC1 150416Z 12010G15KT 20/16 A2997 RMK A01 T01980160  RH  079%=      5-min Rain = 0
KSC1 150417Z 11011KT 20/16 A2997 RMK A01 T01980161  RH  079%=      5-min Rain = 0
KSC1 150418Z 11010KT 20/16 A2997 RMK A01 T01980160  RH  079%=      5-min Rain = 0
KSC1 150419Z 11010KT 20/16 A2998 RMK A01 T01980161  RH  079%=      5-min Rain = 0
KSC1 150420Z 12010G15KT 20/16 A2998 RMK A01 T01980160  RH  079%=      5-min Rain = 0
KSC1 150421Z 11010KT 20/16 A2998 RMK A01 T01980161  RH  079%=      5-min Rain = 0
KSC1 150422Z 12009KT 20/16 A2997 RMK A01 T01980161  RH  079%=      5-min Rain = 0
KSC1 150423Z 12009KT 20/16 A2997 RMK A01 T01980162  RH  080%=      5-min Rain = 0
KSC1 150424Z 11010KT 20/16 A2998 RMK A01 T01980162  RH  080%=      5-min Rain = 0
KSC1 150425Z 11010KT 20/16 A2998 RMK A01 T01970161  RH  080%=      5-min Rain = 0
KSC1 150426Z 10009KT 20/16 A2998 RMK A01 T01970162  RH  080%=      5-min Rain = 0
KSC1 150427Z 10007KT 20/16 A2998 RMK A01 T01960162  RH  080%=      5-min Rain = 0
KSC1 150428Z 11009KT 20/16 A2998 RMK A01 T01960162  RH  081%=      5-min Rain = 0
KSC1 150429Z 11009KT 20/16 A2997 RMK A01 T01950162  RH  081%=      5-min Rain = 0
KSC1 150430Z 11010KT 20/16 A2997 RMK A01 T01950163  RH  082%=      5-min Rain = 0
KSC1 150431Z 12010KT 20/16 A2997 RMK A01 T01950163  RH  082%=      5-min Rain = 0
KSC1 150432Z 11008KT 20/16 A2997 RMK A01 T01950163  RH  082%=      5-min Rain = 0
KSC1 150433Z 12008KT 20/16 A2997 RMK A01 T01950163  RH  082%=      5-min Rain = 0
KSC1 150434Z 12008KT 20/16 A2997 RMK A01 T01950162  RH  081%=      5-min Rain = 0
KSC1 150435Z 12009KT 20/16 A2997 RMK A01 T01950161  RH  081%=      5-min Rain = 0
KSC1 150436Z 13008KT 20/16 A2998 RMK A01 T01950160  RH  080%=      5-min Rain = 0
KSC1 150437Z 13007KT 20/16 A2998 RMK A01 T01950160  RH  080%=      5-min Rain = 0
KSC1 150438Z 12010KT 20/16 A2998 RMK A01 T01960160  RH  080%=      5-min Rain = 0
KSC1 150439Z 13009KT 20/16 A2998 RMK A01 T01960159  RH  079%=      5-min Rain = 0
KSC1 150440Z 12009KT 20/16 A2998 RMK A01 T01960158  RH  079%=      5-min Rain = 0
KSC1 150441Z 13007KT 20/16 A2998 RMK A01 T01960158  RH  079%=      5-min Rain = 0
KSC1 150442Z 13008KT 20/16 A2997 RMK A01 T01960158  RH  079%=      5-min Rain = 0
KSC1 150443Z 13009KT 20/16 A2997 RMK A01 T01960158  RH  079%=      5-min Rain = 0
KSC1 150444Z 13009KT 20/16 A2997 RMK A01 T01960158  RH  078%=      5-min Rain = 0
KSC1 150445Z 12009KT 20/16 A2997 RMK A01 T01960158  RH  078%=      5-min Rain = 0
KSC1 150446Z 13007KT 20/16 A2997 RMK A01 T01970158  RH  078%=      5-min Rain = 0
KSC1 150447Z 13007KT 20/16 A2997 RMK A01 T01970158  RH  078%=      5-min Rain = 0
KSC1 150448Z 13006KT 20/16 A2997 RMK A01 T01970158  RH  078%=      5-min Rain = 0
KSC1 150449Z 13008KT 20/16 A2997 RMK A01 T01970159  RH  079%=      5-min Rain = 0
KSC1 150450Z 13008KT 20/16 A2997 RMK A01 T01970159  RH  079%=      5-min Rain = 0
KSC1 150451Z 13008KT 20/16 A2997 RMK A01 T01970159  RH  079%=      5-min Rain = 0
KSC1 150452Z 13008G15KT 20/16 A2997 RMK A01 T01970159  RH  079%=      5-min Rain = 0
KSC1 150453Z 13008G13KT 20/16 A2997 RMK A01 T01970159  RH  079%=      5-min Rain = 0
KSC1 150454Z 13009KT 20/16 A2997 RMK A01 T01970159  RH  079%=      5-min Rain = 0
KSC1 150455Z 14009KT 20/16 A2998 RMK A01 T01970159  RH  079%=      5-min Rain = 0
KSC1 150456Z 13006KT 20/16 A2998 RMK A01 T01970159  RH  078%=      5-min Rain = 0
KSC1 150457Z 13007KT 20/16 A2998 RMK A01 T01970159  RH  078%=      5-min Rain = 0
KSC1 150458Z 13008KT 20/16 A2998 RMK A01 T01970159  RH  078%=      5-min Rain = 0
KSC1 150459Z 13009KT 20/16 A2998 RMK A01 T01980159  RH  078%=      5-min Rain = 0

Page generated in 0.1419 seconds.